<?xml version="1.0" encoding="UTF-8" standalone="no" ?>
<gpx xmlns="http://www.topografix.com/GPX/1/1" xmlns:xsi="http://www.w3.org/2001/XMLSchema-instance" xsi:schemaLocation="http://www.topografix.com/GPX/1/1 http://www.topografix.com/GPX/1/1/gpx.xsd" version="1.1" creator="VisuGPX - https://www.visugpx.com">
  <metadata>
    <name>Semi du Grési Version 2 </name>
    <desc><![CDATA[Parcours épreuve du 14 juin 2020]]></desc>
  </metadata>
  <wpt lat="45.22118" lon="5.85955">
    <ele>220.5</ele>
  </wpt>
  <trk>
    <name><![CDATA[Semi du Grési Version 2 _1]]></name>
    <trkseg>
      <trkpt lat="45.21539" lon="5.84468">
        <ele>216.6</ele>
        <time>2019-10-25T06:34:39.962Z</time>
      </trkpt>
      <trkpt lat="45.22097" lon="5.85234">
        <ele>219.1</ele>
        <time>2019-10-25T06:34:50.916Z</time>
      </trkpt>
      <trkpt lat="45.22091" lon="5.85268">
        <ele>218.7</ele>
        <time>2019-10-25T06:35:10.564Z</time>
      </trkpt>
      <trkpt lat="45.22051" lon="5.85294">
        <ele>218.3</ele>
        <time>2019-10-25T06:35:25.647Z</time>
      </trkpt>
      <trkpt lat="45.22017" lon="5.85291">
        <ele>218.2</ele>
        <time>2019-10-25T06:35:54.933Z</time>
      </trkpt>
      <trkpt lat="45.21969" lon="5.85227">
        <ele>218.2</ele>
        <time>2019-10-25T06:36:06.302Z</time>
      </trkpt>
      <trkpt lat="45.21946" lon="5.85242">
        <ele>218.1</ele>
        <time>2019-10-25T06:36:11.716Z</time>
      </trkpt>
      <trkpt lat="45.21934" lon="5.85239">
        <ele>218.1</ele>
        <time>2019-10-25T06:36:29.713Z</time>
      </trkpt>
      <trkpt lat="45.21904" lon="5.85277">
        <ele>219.2</ele>
        <time>2019-10-25T06:36:42.414Z</time>
      </trkpt>
      <trkpt lat="45.2188" lon="5.85255">
        <ele>219.3</ele>
        <time>2019-10-25T06:37:41.935Z</time>
      </trkpt>
      <trkpt lat="45.21783" lon="5.85123">
        <ele>218.8</ele>
        <time>2019-10-25T06:37:53.848Z</time>
      </trkpt>
      <trkpt lat="45.2176" lon="5.85141">
        <ele>218.9</ele>
        <time>2019-10-25T06:38:29.537Z</time>
      </trkpt>
      <trkpt lat="45.217" lon="5.85065">
        <ele>218.8</ele>
        <time>2019-10-25T06:38:39.104Z</time>
      </trkpt>
      <trkpt lat="45.2168" lon="5.85079">
        <ele>218.9</ele>
        <time>2019-10-25T06:38:48.149Z</time>
      </trkpt>
      <trkpt lat="45.2166" lon="5.85081">
        <ele>219.2</ele>
        <time>2019-10-25T06:39:13.416Z</time>
      </trkpt>
      <trkpt lat="45.21623" lon="5.8502">
        <ele>219.8</ele>
        <time>2019-10-25T06:39:43.193Z</time>
      </trkpt>
      <trkpt lat="45.21576" lon="5.84951">
        <ele>220.8</ele>
        <time>2019-10-25T06:39:48.607Z</time>
      </trkpt>
      <trkpt lat="45.21564" lon="5.84954">
        <ele>220.8</ele>
        <time>2019-10-25T06:39:51.499Z</time>
      </trkpt>
      <trkpt lat="45.21559" lon="5.8496">
        <ele>220.8</ele>
        <time>2019-10-25T06:40:07.691Z</time>
      </trkpt>
      <trkpt lat="45.21546" lon="5.85008">
        <ele>220.7</ele>
        <time>2019-10-25T06:40:17.230Z</time>
      </trkpt>
      <trkpt lat="45.21531" lon="5.85031">
        <ele>220.6</ele>
        <time>2019-10-25T06:41:40.696Z</time>
      </trkpt>
      <trkpt lat="45.21404" lon="5.84834">
        <ele>219.6</ele>
        <time>2019-10-25T06:45:53.522Z</time>
      </trkpt>
      <trkpt lat="45.21026" lon="5.84232">
        <ele>218.7</ele>
        <time>2019-10-25T06:46:00.764Z</time>
      </trkpt>
      <trkpt lat="45.21028" lon="5.84209">
        <ele>218.5</ele>
        <time>2019-10-25T06:46:06.251Z</time>
      </trkpt>
      <trkpt lat="45.21021" lon="5.84194">
        <ele>218.4</ele>
        <time>2019-10-25T06:46:13.883Z</time>
      </trkpt>
      <trkpt lat="45.21004" lon="5.8419">
        <ele>218.3</ele>
        <time>2019-10-25T06:46:23.642Z</time>
      </trkpt>
      <trkpt lat="45.20989" lon="5.84168">
        <ele>218.5</ele>
        <time>2019-10-25T06:46:37.813Z</time>
      </trkpt>
      <trkpt lat="45.20986" lon="5.84123">
        <ele>219.7</ele>
        <time>2019-10-25T06:47:06.207Z</time>
      </trkpt>
      <trkpt lat="45.21004" lon="5.84035">
        <ele>218.9</ele>
        <time>2019-10-25T06:47:14.653Z</time>
      </trkpt>
      <trkpt lat="45.21014" lon="5.84012">
        <ele>219.2</ele>
        <time>2019-10-25T06:47:32.631Z</time>
      </trkpt>
      <trkpt lat="45.21054" lon="5.84018">
        <ele>218.3</ele>
        <time>2019-10-25T06:48:02.550Z</time>
      </trkpt>
      <trkpt lat="45.21112" lon="5.84066">
        <ele>217.6</ele>
        <time>2019-10-25T06:48:18.984Z</time>
      </trkpt>
      <trkpt lat="45.21148" lon="5.84078">
        <ele>217.3</ele>
        <time>2019-10-25T06:48:53.523Z</time>
      </trkpt>
      <trkpt lat="45.21226" lon="5.84083">
        <ele>216.8</ele>
        <time>2019-10-25T06:49:30.447Z</time>
      </trkpt>
      <trkpt lat="45.21308" lon="5.8407">
        <ele>217.7</ele>
        <time>2019-10-25T06:50:11.344Z</time>
      </trkpt>
      <trkpt lat="45.21393" lon="5.84018">
        <ele>217.6</ele>
        <time>2019-10-25T06:50:25.847Z</time>
      </trkpt>
      <trkpt lat="45.21423" lon="5.84001">
        <ele>217.1</ele>
        <time>2019-10-25T06:51:07.611Z</time>
      </trkpt>
      <trkpt lat="45.21514" lon="5.84034">
        <ele>218.7</ele>
        <time>2019-10-25T06:51:25.610Z</time>
      </trkpt>
      <trkpt lat="45.21545" lon="5.84073">
        <ele>219</ele>
        <time>2019-10-25T06:51:36.260Z</time>
      </trkpt>
      <trkpt lat="45.21568" lon="5.84081">
        <ele>219.5</ele>
        <time>2019-10-25T06:52:09.908Z</time>
      </trkpt>
      <trkpt lat="45.21547" lon="5.83977">
        <ele>219.8</ele>
        <time>2019-10-25T06:52:22.176Z</time>
      </trkpt>
      <trkpt lat="45.21545" lon="5.83938">
        <ele>220.2</ele>
        <time>2019-10-25T06:52:53.930Z</time>
      </trkpt>
      <trkpt lat="45.2155" lon="5.83837">
        <ele>220</ele>
        <time>2019-10-25T06:53:04.247Z</time>
      </trkpt>
      <trkpt lat="45.21557" lon="5.83806">
        <ele>219.1</ele>
        <time>2019-10-25T06:53:21.881Z</time>
      </trkpt>
      <trkpt lat="45.21582" lon="5.83762">
        <ele>218.4</ele>
        <time>2019-10-25T06:53:30.442Z</time>
      </trkpt>
      <trkpt lat="45.21591" lon="5.83738">
        <ele>219.6</ele>
        <time>2019-10-25T06:53:40.170Z</time>
      </trkpt>
      <trkpt lat="45.21599" lon="5.83709">
        <ele>221</ele>
        <time>2019-10-25T06:53:50.177Z</time>
      </trkpt>
      <trkpt lat="45.21611" lon="5.83682">
        <ele>221.4</ele>
        <time>2019-10-25T06:54:50.260Z</time>
      </trkpt>
      <trkpt lat="45.21541" lon="5.83518">
        <ele>221.7</ele>
        <time>2019-10-25T06:56:09.440Z</time>
      </trkpt>
      <trkpt lat="45.21414" lon="5.83341">
        <ele>219.1</ele>
        <time>2019-10-25T06:57:21.161Z</time>
      </trkpt>
      <trkpt lat="45.21283" lon="5.83208">
        <ele>219.6</ele>
        <time>2019-10-25T06:58:01.687Z</time>
      </trkpt>
      <trkpt lat="45.2121" lon="5.8313">
        <ele>223.1</ele>
        <time>2019-10-25T06:58:28.990Z</time>
      </trkpt>
      <trkpt lat="45.21169" lon="5.83065">
        <ele>223.8</ele>
        <time>2019-10-25T06:58:48.142Z</time>
      </trkpt>
      <trkpt lat="45.21132" lon="5.83033">
        <ele>222.2</ele>
        <time>2019-10-25T06:59:14.380Z</time>
      </trkpt>
      <trkpt lat="45.2108" lon="5.82994">
        <ele>222</ele>
        <time>2019-10-25T07:01:37.339Z</time>
      </trkpt>
      <trkpt lat="45.20815" lon="5.82735">
        <ele>222.1</ele>
        <time>2019-10-25T07:01:45.336Z</time>
      </trkpt>
      <trkpt lat="45.20799" lon="5.82724">
        <ele>222.2</ele>
        <time>2019-10-25T07:01:59.928Z</time>
      </trkpt>
      <trkpt lat="45.2077" lon="5.82704">
        <ele>222.3</ele>
        <time>2019-10-25T07:03:30.032Z</time>
      </trkpt>
      <trkpt lat="45.20609" lon="5.82528">
        <ele>222.4</ele>
        <time>2019-10-25T07:05:43.006Z</time>
      </trkpt>
      <trkpt lat="45.20374" lon="5.82267">
        <ele>220.2</ele>
        <time>2019-10-25T07:06:32.091Z</time>
      </trkpt>
      <trkpt lat="45.203" lon="5.82151">
        <ele>220.3</ele>
        <time>2019-10-25T07:07:09.423Z</time>
      </trkpt>
      <trkpt lat="45.2026" lon="5.82045">
        <ele>219.9</ele>
        <time>2019-10-25T07:07:47.200Z</time>
      </trkpt>
      <trkpt lat="45.20243" lon="5.81927">
        <ele>219.9</ele>
        <time>2019-10-25T07:08:07.398Z</time>
      </trkpt>
      <trkpt lat="45.20248" lon="5.81863">
        <ele>217.9</ele>
        <time>2019-10-25T07:08:39.570Z</time>
      </trkpt>
      <trkpt lat="45.20277" lon="5.81769">
        <ele>217</ele>
        <time>2019-10-25T07:09:12.576Z</time>
      </trkpt>
      <trkpt lat="45.20321" lon="5.81684">
        <ele>216.3</ele>
        <time>2019-10-25T07:09:30.852Z</time>
      </trkpt>
      <trkpt lat="45.20353" lon="5.81647">
        <ele>215.9</ele>
        <time>2019-10-25T07:10:57.000Z</time>
      </trkpt>
      <trkpt lat="45.20463" lon="5.81421">
        <ele>219.2</ele>
        <time>2019-10-25T07:12:25.618Z</time>
      </trkpt>
      <trkpt lat="45.20568" lon="5.81181">
        <ele>221.1</ele>
        <time>2019-10-25T07:12:44.946Z</time>
      </trkpt>
      <trkpt lat="45.20578" lon="5.8112">
        <ele>220.1</ele>
        <time>2019-10-25T07:14:08.725Z</time>
      </trkpt>
      <trkpt lat="45.20582" lon="5.80853">
        <ele>219.6</ele>
        <time>2019-10-25T07:14:59.015Z</time>
      </trkpt>
      <trkpt lat="45.20575" lon="5.80693">
        <ele>220.3</ele>
        <time>2019-10-25T07:15:54.897Z</time>
      </trkpt>
      <trkpt lat="45.2058" lon="5.80515">
        <ele>225.7</ele>
        <time>2019-10-25T07:16:07.496Z</time>
      </trkpt>
      <trkpt lat="45.20571" lon="5.80477">
        <ele>227.2</ele>
        <time>2019-10-25T07:16:22.323Z</time>
      </trkpt>
      <trkpt lat="45.20574" lon="5.8043">
        <ele>227.1</ele>
        <time>2019-10-25T07:16:32.642Z</time>
      </trkpt>
      <trkpt lat="45.20582" lon="5.80399">
        <ele>226.5</ele>
        <time>2019-10-25T07:17:21.177Z</time>
      </trkpt>
      <trkpt lat="45.20566" lon="5.80246">
        <ele>221.1</ele>
        <time>2019-10-25T07:17:59.695Z</time>
      </trkpt>
      <trkpt lat="45.20547" lon="5.80125">
        <ele>223.2</ele>
        <time>2019-10-25T07:19:08.614Z</time>
      </trkpt>
      <trkpt lat="45.20492" lon="5.7992">
        <ele>221.1</ele>
        <time>2019-10-25T07:41:38.759Z</time>
      </trkpt>
      <trkpt lat="45.20266" lon="5.80174">
        <ele>215.6</ele>
        <time>2019-10-25T07:43:51.912Z</time>
      </trkpt>
      <trkpt lat="45.20075" lon="5.80473">
        <ele>216.1</ele>
        <time>2019-10-25T07:45:39.119Z</time>
      </trkpt>
      <trkpt lat="45.20033" lon="5.80477">
        <ele>216</ele>
        <time>2019-10-25T07:46:03.351Z</time>
      </trkpt>
      <trkpt lat="45.19935" lon="5.80441">
        <ele>215.8</ele>
        <time>2019-10-25T07:46:59.458Z</time>
      </trkpt>
      <trkpt lat="45.19922" lon="5.80431">
        <ele>215.9</ele>
        <time>2019-10-25T07:47:51.114Z</time>
      </trkpt>
      <trkpt lat="45.19955" lon="5.80648">
        <ele>216</ele>
        <time>2019-10-25T07:49:06.019Z</time>
      </trkpt>
      <trkpt lat="45.199" lon="5.80712">
        <ele>215.6</ele>
        <time>2019-10-25T07:49:17.690Z</time>
      </trkpt>
      <trkpt lat="45.19443" lon="5.80997">
        <ele>216.8</ele>
        <time>2019-10-25T07:49:30.556Z</time>
      </trkpt>
      <trkpt lat="45.19429" lon="5.81008">
        <ele>216.5</ele>
        <time>2019-10-25T07:49:47.836Z</time>
      </trkpt>
      <trkpt lat="45.19598" lon="5.81359">
        <ele>216.6</ele>
        <time>2019-10-25T07:50:14.787Z</time>
      </trkpt>
      <trkpt lat="45.19732" lon="5.81643">
        <ele>216.9</ele>
        <time>2019-10-25T07:50:31.203Z</time>
      </trkpt>
      <trkpt lat="45.19768" lon="5.81701">
        <ele>215.5</ele>
        <time>2019-10-25T07:51:07.400Z</time>
      </trkpt>
      <trkpt lat="45.19867" lon="5.81811">
        <ele>216.8</ele>
        <time>2019-10-25T07:51:57.604Z</time>
      </trkpt>
      <trkpt lat="45.1997" lon="5.81889">
        <ele>216.7</ele>
        <time>2019-10-25T07:55:36.170Z</time>
      </trkpt>
      <trkpt lat="45.2013" lon="5.81963">
        <ele>215.9</ele>
        <time>2019-10-25T07:56:02.687Z</time>
      </trkpt>
      <trkpt lat="45.20151" lon="5.81985">
        <ele>215.6</ele>
        <time>2019-10-25T07:58:23.805Z</time>
      </trkpt>
      <trkpt lat="45.2018" lon="5.81984">
        <ele>216.8</ele>
        <time>2019-10-25T07:59:09.304Z</time>
      </trkpt>
      <trkpt lat="45.20219" lon="5.81981">
        <ele>218.4</ele>
        <time>2019-10-25T07:59:47.899Z</time>
      </trkpt>
      <trkpt lat="45.20231" lon="5.82065">
        <ele>219.4</ele>
        <time>2019-10-25T08:00:20.025Z</time>
      </trkpt>
      <trkpt lat="45.20265" lon="5.82042">
        <ele>219.8</ele>
        <time>2019-10-25T08:00:25.809Z</time>
      </trkpt>
      <trkpt lat="45.20301" lon="5.82146">
        <ele>220.3</ele>
        <time>2019-10-25T08:00:50.092Z</time>
      </trkpt>
      <trkpt lat="45.20377" lon="5.82265">
        <ele>220.2</ele>
        <time>2019-10-25T08:03:05.230Z</time>
      </trkpt>
      <trkpt lat="45.20764" lon="5.82694">
        <ele>222.4</ele>
        <time>2019-10-25T08:03:20.367Z</time>
      </trkpt>
      <trkpt lat="45.20817" lon="5.82733">
        <ele>222.1</ele>
        <time>2019-10-25T08:30:28.255Z</time>
      </trkpt>
      <trkpt lat="45.21079" lon="5.82986">
        <ele>222</ele>
        <time>2019-10-25T08:31:19.720Z</time>
      </trkpt>
      <trkpt lat="45.21164" lon="5.83066">
        <ele>223.1</ele>
        <time>2019-10-25T08:33:04.599Z</time>
      </trkpt>
      <trkpt lat="45.21225" lon="5.83155">
        <ele>222.5</ele>
        <time>2019-10-25T08:35:37.028Z</time>
      </trkpt>
      <trkpt lat="45.21161" lon="5.83202">
        <ele>220.9</ele>
        <time>2019-10-25T08:37:36.114Z</time>
      </trkpt>
      <trkpt lat="45.21148" lon="5.83198">
        <ele>221</ele>
        <time>2019-10-25T08:39:02.449Z</time>
      </trkpt>
      <trkpt lat="45.21122" lon="5.8313">
        <ele>222.2</ele>
        <time>2019-10-25T08:39:33.889Z</time>
      </trkpt>
      <trkpt lat="45.21296" lon="5.82776">
        <ele>221.2</ele>
        <time>2019-10-25T08:40:03.205Z</time>
      </trkpt>
      <trkpt lat="45.21315" lon="5.82736">
        <ele>222.3</ele>
        <time>2019-10-25T08:40:58.072Z</time>
      </trkpt>
      <trkpt lat="45.21222" lon="5.82951">
        <ele>220.6</ele>
        <time>2019-10-25T08:41:11.815Z</time>
      </trkpt>
      <trkpt lat="45.21411" lon="5.83147">
        <ele>219.9</ele>
        <time>2019-10-24T17:07:58Z</time>
      </trkpt>
      <trkpt lat="45.2158" lon="5.83348">
        <ele>222</ele>
        <time>2019-10-24T17:08:01Z</time>
      </trkpt>
      <trkpt lat="45.2168" lon="5.83541">
        <ele>227.9</ele>
        <time>2019-10-24T17:08:04Z</time>
      </trkpt>
      <trkpt lat="45.21799" lon="5.83782">
        <ele>228.2</ele>
        <time>2019-10-24T17:08:08Z</time>
      </trkpt>
      <trkpt lat="45.21894" lon="5.839">
        <ele>227.8</ele>
        <time>2019-10-24T17:08:15Z</time>
      </trkpt>
      <trkpt lat="45.21958" lon="5.84018">
        <ele>228.3</ele>
        <time>2019-10-24T17:08:23Z</time>
      </trkpt>
      <trkpt lat="45.22021" lon="5.84114">
        <ele>226</ele>
        <time>2019-10-24T17:08:31Z</time>
      </trkpt>
      <trkpt lat="45.22097" lon="5.84166">
        <ele>226.7</ele>
        <time>2019-10-24T17:08:39Z</time>
      </trkpt>
      <trkpt lat="45.22181" lon="5.84279">
        <ele>229.5</ele>
        <time>2019-10-24T17:08:41Z</time>
      </trkpt>
      <trkpt lat="45.22358" lon="5.845">
        <ele>222.9</ele>
        <time>2019-10-24T17:08:43Z</time>
      </trkpt>
      <trkpt lat="45.22616" lon="5.84821">
        <ele>218.9</ele>
        <time>2019-10-24T17:08:52Z</time>
      </trkpt>
      <trkpt lat="45.22821" lon="5.85066">
        <ele>221.6</ele>
        <time>2019-10-24T17:09:00Z</time>
      </trkpt>
      <trkpt lat="45.22964" lon="5.85252">
        <ele>222</ele>
        <time>2019-10-24T17:09:08Z</time>
      </trkpt>
      <trkpt lat="45.23019" lon="5.85315">
        <ele>221.5</ele>
        <time>2019-10-24T17:09:17Z</time>
      </trkpt>
      <trkpt lat="45.23075" lon="5.85365">
        <ele>221.6</ele>
        <time>2019-10-24T17:09:25Z</time>
      </trkpt>
      <trkpt lat="45.22993" lon="5.85496">
        <ele>223.6</ele>
        <time>2019-10-24T17:09:34Z</time>
      </trkpt>
      <trkpt lat="45.22979" lon="5.85535">
        <ele>222.9</ele>
        <time>2019-10-24T17:09:43Z</time>
      </trkpt>
      <trkpt lat="45.22967" lon="5.85531">
        <ele>221.2</ele>
        <time>2019-10-24T17:09:51Z</time>
        <extensions>
          <gpxtpx:TrackPointExtension xmlns:gpxtpx="http://www.garmin.com/xmlschemas/TrackPointExtension/v1">
            <gpxtpx:hr>130</gpxtpx:hr>
          </gpxtpx:TrackPointExtension>
        </extensions>
      </trkpt>
      <trkpt lat="45.22963" lon="5.85537">
        <ele>220</ele>
        <time>2019-10-24T17:10:00Z</time>
        <extensions>
          <gpxtpx:TrackPointExtension xmlns:gpxtpx="http://www.garmin.com/xmlschemas/TrackPointExtension/v1">
            <gpxtpx:hr>131</gpxtpx:hr>
          </gpxtpx:TrackPointExtension>
        </extensions>
      </trkpt>
      <trkpt lat="45.22958" lon="5.85547">
        <ele>218.8</ele>
        <time>2019-10-24T17:10:07Z</time>
        <extensions>
          <gpxtpx:TrackPointExtension xmlns:gpxtpx="http://www.garmin.com/xmlschemas/TrackPointExtension/v1">
            <gpxtpx:hr>131</gpxtpx:hr>
          </gpxtpx:TrackPointExtension>
        </extensions>
      </trkpt>
      <trkpt lat="45.22951" lon="5.85561">
        <ele>217.8</ele>
        <time>2019-10-24T17:10:12Z</time>
        <extensions>
          <gpxtpx:TrackPointExtension xmlns:gpxtpx="http://www.garmin.com/xmlschemas/TrackPointExtension/v1">
            <gpxtpx:hr>130</gpxtpx:hr>
          </gpxtpx:TrackPointExtension>
        </extensions>
      </trkpt>
      <trkpt lat="45.22942" lon="5.85583">
        <ele>217.2</ele>
        <time>2019-10-24T17:10:13Z</time>
        <extensions>
          <gpxtpx:TrackPointExtension xmlns:gpxtpx="http://www.garmin.com/xmlschemas/TrackPointExtension/v1">
            <gpxtpx:hr>129</gpxtpx:hr>
          </gpxtpx:TrackPointExtension>
        </extensions>
      </trkpt>
      <trkpt lat="45.22933" lon="5.85606">
        <ele>217</ele>
        <time>2019-10-24T17:10:21Z</time>
        <extensions>
          <gpxtpx:TrackPointExtension xmlns:gpxtpx="http://www.garmin.com/xmlschemas/TrackPointExtension/v1">
            <gpxtpx:hr>127</gpxtpx:hr>
          </gpxtpx:TrackPointExtension>
        </extensions>
      </trkpt>
      <trkpt lat="45.22927" lon="5.85633">
        <ele>217</ele>
        <time>2019-10-24T17:10:27Z</time>
        <extensions>
          <gpxtpx:TrackPointExtension xmlns:gpxtpx="http://www.garmin.com/xmlschemas/TrackPointExtension/v1">
            <gpxtpx:hr>126</gpxtpx:hr>
          </gpxtpx:TrackPointExtension>
        </extensions>
      </trkpt>
      <trkpt lat="45.22921" lon="5.85659">
        <ele>217</ele>
        <time>2019-10-24T17:10:35Z</time>
        <extensions>
          <gpxtpx:TrackPointExtension xmlns:gpxtpx="http://www.garmin.com/xmlschemas/TrackPointExtension/v1">
            <gpxtpx:hr>124</gpxtpx:hr>
          </gpxtpx:TrackPointExtension>
        </extensions>
      </trkpt>
      <trkpt lat="45.2292" lon="5.85667">
        <ele>216.8</ele>
        <time>2019-10-24T17:10:43Z</time>
        <extensions>
          <gpxtpx:TrackPointExtension xmlns:gpxtpx="http://www.garmin.com/xmlschemas/TrackPointExtension/v1">
            <gpxtpx:hr>123</gpxtpx:hr>
          </gpxtpx:TrackPointExtension>
        </extensions>
      </trkpt>
      <trkpt lat="45.22918" lon="5.85673">
        <ele>216.8</ele>
        <time>2019-10-24T17:10:51Z</time>
        <extensions>
          <gpxtpx:TrackPointExtension xmlns:gpxtpx="http://www.garmin.com/xmlschemas/TrackPointExtension/v1">
            <gpxtpx:hr>123</gpxtpx:hr>
          </gpxtpx:TrackPointExtension>
        </extensions>
      </trkpt>
      <trkpt lat="45.22914" lon="5.85701">
        <ele>216.8</ele>
        <time>2019-10-24T17:10:59Z</time>
        <extensions>
          <gpxtpx:TrackPointExtension xmlns:gpxtpx="http://www.garmin.com/xmlschemas/TrackPointExtension/v1">
            <gpxtpx:hr>125</gpxtpx:hr>
          </gpxtpx:TrackPointExtension>
        </extensions>
      </trkpt>
      <trkpt lat="45.22912" lon="5.85727">
        <ele>216.8</ele>
        <time>2019-10-24T17:11:07Z</time>
        <extensions>
          <gpxtpx:TrackPointExtension xmlns:gpxtpx="http://www.garmin.com/xmlschemas/TrackPointExtension/v1">
            <gpxtpx:hr>127</gpxtpx:hr>
          </gpxtpx:TrackPointExtension>
        </extensions>
      </trkpt>
      <trkpt lat="45.2291" lon="5.85755">
        <ele>216.8</ele>
        <time>2019-10-24T17:11:15Z</time>
        <extensions>
          <gpxtpx:TrackPointExtension xmlns:gpxtpx="http://www.garmin.com/xmlschemas/TrackPointExtension/v1">
            <gpxtpx:hr>129</gpxtpx:hr>
          </gpxtpx:TrackPointExtension>
        </extensions>
      </trkpt>
      <trkpt lat="45.22912" lon="5.85783">
        <ele>216.6</ele>
        <time>2019-10-24T17:11:23Z</time>
        <extensions>
          <gpxtpx:TrackPointExtension xmlns:gpxtpx="http://www.garmin.com/xmlschemas/TrackPointExtension/v1">
            <gpxtpx:hr>129</gpxtpx:hr>
          </gpxtpx:TrackPointExtension>
        </extensions>
      </trkpt>
      <trkpt lat="45.22913" lon="5.8581">
        <ele>216.6</ele>
        <time>2019-10-24T17:11:31Z</time>
        <extensions>
          <gpxtpx:TrackPointExtension xmlns:gpxtpx="http://www.garmin.com/xmlschemas/TrackPointExtension/v1">
            <gpxtpx:hr>127</gpxtpx:hr>
          </gpxtpx:TrackPointExtension>
        </extensions>
      </trkpt>
      <trkpt lat="45.22917" lon="5.85838">
        <ele>216.4</ele>
        <time>2019-10-24T17:11:39Z</time>
        <extensions>
          <gpxtpx:TrackPointExtension xmlns:gpxtpx="http://www.garmin.com/xmlschemas/TrackPointExtension/v1">
            <gpxtpx:hr>126</gpxtpx:hr>
          </gpxtpx:TrackPointExtension>
        </extensions>
      </trkpt>
      <trkpt lat="45.22921" lon="5.85864">
        <ele>216.6</ele>
        <time>2019-10-24T17:11:47Z</time>
        <extensions>
          <gpxtpx:TrackPointExtension xmlns:gpxtpx="http://www.garmin.com/xmlschemas/TrackPointExtension/v1">
            <gpxtpx:hr>127</gpxtpx:hr>
          </gpxtpx:TrackPointExtension>
        </extensions>
      </trkpt>
      <trkpt lat="45.22927" lon="5.85888">
        <ele>216.6</ele>
        <time>2019-10-24T17:11:55Z</time>
        <extensions>
          <gpxtpx:TrackPointExtension xmlns:gpxtpx="http://www.garmin.com/xmlschemas/TrackPointExtension/v1">
            <gpxtpx:hr>127</gpxtpx:hr>
          </gpxtpx:TrackPointExtension>
        </extensions>
      </trkpt>
      <trkpt lat="45.22932" lon="5.85915">
        <ele>216.6</ele>
        <time>2019-10-24T17:12:03Z</time>
        <extensions>
          <gpxtpx:TrackPointExtension xmlns:gpxtpx="http://www.garmin.com/xmlschemas/TrackPointExtension/v1">
            <gpxtpx:hr>127</gpxtpx:hr>
          </gpxtpx:TrackPointExtension>
        </extensions>
      </trkpt>
      <trkpt lat="45.22937" lon="5.85931">
        <ele>216.4</ele>
        <time>2019-10-24T17:12:11Z</time>
        <extensions>
          <gpxtpx:TrackPointExtension xmlns:gpxtpx="http://www.garmin.com/xmlschemas/TrackPointExtension/v1">
            <gpxtpx:hr>125</gpxtpx:hr>
          </gpxtpx:TrackPointExtension>
        </extensions>
      </trkpt>
      <trkpt lat="45.22941" lon="5.85935">
        <ele>216</ele>
        <time>2019-10-24T17:12:19Z</time>
        <extensions>
          <gpxtpx:TrackPointExtension xmlns:gpxtpx="http://www.garmin.com/xmlschemas/TrackPointExtension/v1">
            <gpxtpx:hr>122</gpxtpx:hr>
          </gpxtpx:TrackPointExtension>
        </extensions>
      </trkpt>
      <trkpt lat="45.22941" lon="5.85937">
        <ele>216</ele>
        <time>2019-10-24T17:12:21Z</time>
        <extensions>
          <gpxtpx:TrackPointExtension xmlns:gpxtpx="http://www.garmin.com/xmlschemas/TrackPointExtension/v1">
            <gpxtpx:hr>122</gpxtpx:hr>
          </gpxtpx:TrackPointExtension>
        </extensions>
      </trkpt>
      <trkpt lat="45.22945" lon="5.85965">
        <ele>216.6</ele>
        <time>2019-10-24T17:12:31Z</time>
        <extensions>
          <gpxtpx:TrackPointExtension xmlns:gpxtpx="http://www.garmin.com/xmlschemas/TrackPointExtension/v1">
            <gpxtpx:hr>123</gpxtpx:hr>
          </gpxtpx:TrackPointExtension>
        </extensions>
      </trkpt>
      <trkpt lat="45.2295" lon="5.85985">
        <ele>216.6</ele>
        <time>2019-10-24T17:12:32Z</time>
        <extensions>
          <gpxtpx:TrackPointExtension xmlns:gpxtpx="http://www.garmin.com/xmlschemas/TrackPointExtension/v1">
            <gpxtpx:hr>126</gpxtpx:hr>
          </gpxtpx:TrackPointExtension>
        </extensions>
      </trkpt>
      <trkpt lat="45.22955" lon="5.8601">
        <ele>216.8</ele>
        <time>2019-10-24T17:12:40Z</time>
        <extensions>
          <gpxtpx:TrackPointExtension xmlns:gpxtpx="http://www.garmin.com/xmlschemas/TrackPointExtension/v1">
            <gpxtpx:hr>128</gpxtpx:hr>
          </gpxtpx:TrackPointExtension>
        </extensions>
      </trkpt>
      <trkpt lat="45.22961" lon="5.86036">
        <ele>216.6</ele>
        <time>2019-10-24T17:12:48Z</time>
        <extensions>
          <gpxtpx:TrackPointExtension xmlns:gpxtpx="http://www.garmin.com/xmlschemas/TrackPointExtension/v1">
            <gpxtpx:hr>129</gpxtpx:hr>
          </gpxtpx:TrackPointExtension>
        </extensions>
      </trkpt>
      <trkpt lat="45.22967" lon="5.86061">
        <ele>216.8</ele>
        <time>2019-10-24T17:12:56Z</time>
        <extensions>
          <gpxtpx:TrackPointExtension xmlns:gpxtpx="http://www.garmin.com/xmlschemas/TrackPointExtension/v1">
            <gpxtpx:hr>130</gpxtpx:hr>
          </gpxtpx:TrackPointExtension>
        </extensions>
      </trkpt>
      <trkpt lat="45.22972" lon="5.86089">
        <ele>216.8</ele>
        <time>2019-10-24T17:13:04Z</time>
        <extensions>
          <gpxtpx:TrackPointExtension xmlns:gpxtpx="http://www.garmin.com/xmlschemas/TrackPointExtension/v1">
            <gpxtpx:hr>131</gpxtpx:hr>
          </gpxtpx:TrackPointExtension>
        </extensions>
      </trkpt>
      <trkpt lat="45.22978" lon="5.86116">
        <ele>217</ele>
        <time>2019-10-24T17:13:12Z</time>
        <extensions>
          <gpxtpx:TrackPointExtension xmlns:gpxtpx="http://www.garmin.com/xmlschemas/TrackPointExtension/v1">
            <gpxtpx:hr>132</gpxtpx:hr>
          </gpxtpx:TrackPointExtension>
        </extensions>
      </trkpt>
      <trkpt lat="45.22982" lon="5.86144">
        <ele>216.8</ele>
        <time>2019-10-24T17:13:20Z</time>
        <extensions>
          <gpxtpx:TrackPointExtension xmlns:gpxtpx="http://www.garmin.com/xmlschemas/TrackPointExtension/v1">
            <gpxtpx:hr>131</gpxtpx:hr>
          </gpxtpx:TrackPointExtension>
        </extensions>
      </trkpt>
      <trkpt lat="45.22989" lon="5.86171">
        <ele>216.6</ele>
        <time>2019-10-24T17:13:28Z</time>
        <extensions>
          <gpxtpx:TrackPointExtension xmlns:gpxtpx="http://www.garmin.com/xmlschemas/TrackPointExtension/v1">
            <gpxtpx:hr>131</gpxtpx:hr>
          </gpxtpx:TrackPointExtension>
        </extensions>
      </trkpt>
      <trkpt lat="45.22993" lon="5.86199">
        <ele>216.4</ele>
        <time>2019-10-24T17:13:36Z</time>
        <extensions>
          <gpxtpx:TrackPointExtension xmlns:gpxtpx="http://www.garmin.com/xmlschemas/TrackPointExtension/v1">
            <gpxtpx:hr>132</gpxtpx:hr>
          </gpxtpx:TrackPointExtension>
        </extensions>
      </trkpt>
      <trkpt lat="45.22999" lon="5.86226">
        <ele>216.6</ele>
        <time>2019-10-24T17:13:43Z</time>
        <extensions>
          <gpxtpx:TrackPointExtension xmlns:gpxtpx="http://www.garmin.com/xmlschemas/TrackPointExtension/v1">
            <gpxtpx:hr>132</gpxtpx:hr>
          </gpxtpx:TrackPointExtension>
        </extensions>
      </trkpt>
      <trkpt lat="45.23002" lon="5.86253">
        <ele>216.8</ele>
        <time>2019-10-24T17:13:51Z</time>
        <extensions>
          <gpxtpx:TrackPointExtension xmlns:gpxtpx="http://www.garmin.com/xmlschemas/TrackPointExtension/v1">
            <gpxtpx:hr>131</gpxtpx:hr>
          </gpxtpx:TrackPointExtension>
        </extensions>
      </trkpt>
      <trkpt lat="45.23006" lon="5.8628">
        <ele>216.8</ele>
        <time>2019-10-24T17:13:59Z</time>
        <extensions>
          <gpxtpx:TrackPointExtension xmlns:gpxtpx="http://www.garmin.com/xmlschemas/TrackPointExtension/v1">
            <gpxtpx:hr>131</gpxtpx:hr>
          </gpxtpx:TrackPointExtension>
        </extensions>
      </trkpt>
      <trkpt lat="45.23009" lon="5.86307">
        <ele>216.8</ele>
        <time>2019-10-24T17:14:07Z</time>
        <extensions>
          <gpxtpx:TrackPointExtension xmlns:gpxtpx="http://www.garmin.com/xmlschemas/TrackPointExtension/v1">
            <gpxtpx:hr>130</gpxtpx:hr>
          </gpxtpx:TrackPointExtension>
        </extensions>
      </trkpt>
      <trkpt lat="45.23003" lon="5.86333">
        <ele>217</ele>
        <time>2019-10-24T17:14:15Z</time>
        <extensions>
          <gpxtpx:TrackPointExtension xmlns:gpxtpx="http://www.garmin.com/xmlschemas/TrackPointExtension/v1">
            <gpxtpx:hr>131</gpxtpx:hr>
          </gpxtpx:TrackPointExtension>
        </extensions>
      </trkpt>
      <trkpt lat="45.22997" lon="5.86358">
        <ele>217.2</ele>
        <time>2019-10-24T17:14:22Z</time>
        <extensions>
          <gpxtpx:TrackPointExtension xmlns:gpxtpx="http://www.garmin.com/xmlschemas/TrackPointExtension/v1">
            <gpxtpx:hr>131</gpxtpx:hr>
          </gpxtpx:TrackPointExtension>
        </extensions>
      </trkpt>
      <trkpt lat="45.22999" lon="5.86362">
        <ele>217.4</ele>
        <time>2019-10-24T17:14:29Z</time>
        <extensions>
          <gpxtpx:TrackPointExtension xmlns:gpxtpx="http://www.garmin.com/xmlschemas/TrackPointExtension/v1">
            <gpxtpx:hr>131</gpxtpx:hr>
          </gpxtpx:TrackPointExtension>
        </extensions>
      </trkpt>
      <trkpt lat="45.23017" lon="5.86369">
        <ele>217.8</ele>
        <time>2019-10-24T17:14:36Z</time>
        <extensions>
          <gpxtpx:TrackPointExtension xmlns:gpxtpx="http://www.garmin.com/xmlschemas/TrackPointExtension/v1">
            <gpxtpx:hr>130</gpxtpx:hr>
          </gpxtpx:TrackPointExtension>
        </extensions>
      </trkpt>
      <trkpt lat="45.23019" lon="5.86371">
        <ele>217.8</ele>
        <time>2019-10-24T17:14:43Z</time>
        <extensions>
          <gpxtpx:TrackPointExtension xmlns:gpxtpx="http://www.garmin.com/xmlschemas/TrackPointExtension/v1">
            <gpxtpx:hr>130</gpxtpx:hr>
          </gpxtpx:TrackPointExtension>
        </extensions>
      </trkpt>
      <trkpt lat="45.23037" lon="5.86366">
        <ele>217.4</ele>
        <time>2019-10-24T17:14:51Z</time>
        <extensions>
          <gpxtpx:TrackPointExtension xmlns:gpxtpx="http://www.garmin.com/xmlschemas/TrackPointExtension/v1">
            <gpxtpx:hr>129</gpxtpx:hr>
          </gpxtpx:TrackPointExtension>
        </extensions>
      </trkpt>
      <trkpt lat="45.23056" lon="5.86363">
        <ele>216.8</ele>
        <time>2019-10-24T17:14:59Z</time>
        <extensions>
          <gpxtpx:TrackPointExtension xmlns:gpxtpx="http://www.garmin.com/xmlschemas/TrackPointExtension/v1">
            <gpxtpx:hr>128</gpxtpx:hr>
          </gpxtpx:TrackPointExtension>
        </extensions>
      </trkpt>
      <trkpt lat="45.23074" lon="5.8636">
        <ele>216.6</ele>
        <time>2019-10-24T17:15:07Z</time>
        <extensions>
          <gpxtpx:TrackPointExtension xmlns:gpxtpx="http://www.garmin.com/xmlschemas/TrackPointExtension/v1">
            <gpxtpx:hr>128</gpxtpx:hr>
          </gpxtpx:TrackPointExtension>
        </extensions>
      </trkpt>
      <trkpt lat="45.23094" lon="5.86357">
        <ele>216.8</ele>
        <time>2019-10-24T17:15:14Z</time>
        <extensions>
          <gpxtpx:TrackPointExtension xmlns:gpxtpx="http://www.garmin.com/xmlschemas/TrackPointExtension/v1">
            <gpxtpx:hr>128</gpxtpx:hr>
          </gpxtpx:TrackPointExtension>
        </extensions>
      </trkpt>
      <trkpt lat="45.23112" lon="5.86355">
        <ele>216.4</ele>
        <time>2019-10-24T17:15:22Z</time>
        <extensions>
          <gpxtpx:TrackPointExtension xmlns:gpxtpx="http://www.garmin.com/xmlschemas/TrackPointExtension/v1">
            <gpxtpx:hr>130</gpxtpx:hr>
          </gpxtpx:TrackPointExtension>
        </extensions>
      </trkpt>
      <trkpt lat="45.23131" lon="5.86351">
        <ele>216.4</ele>
        <time>2019-10-24T17:15:31Z</time>
        <extensions>
          <gpxtpx:TrackPointExtension xmlns:gpxtpx="http://www.garmin.com/xmlschemas/TrackPointExtension/v1">
            <gpxtpx:hr>130</gpxtpx:hr>
          </gpxtpx:TrackPointExtension>
        </extensions>
      </trkpt>
      <trkpt lat="45.23151" lon="5.86348">
        <ele>216.6</ele>
        <time>2019-10-24T17:15:39Z</time>
        <extensions>
          <gpxtpx:TrackPointExtension xmlns:gpxtpx="http://www.garmin.com/xmlschemas/TrackPointExtension/v1">
            <gpxtpx:hr>129</gpxtpx:hr>
          </gpxtpx:TrackPointExtension>
        </extensions>
      </trkpt>
      <trkpt lat="45.2317" lon="5.86346">
        <ele>216.8</ele>
        <time>2019-10-24T17:15:40Z</time>
        <extensions>
          <gpxtpx:TrackPointExtension xmlns:gpxtpx="http://www.garmin.com/xmlschemas/TrackPointExtension/v1">
            <gpxtpx:hr>129</gpxtpx:hr>
          </gpxtpx:TrackPointExtension>
        </extensions>
      </trkpt>
      <trkpt lat="45.23187" lon="5.86355">
        <ele>216.4</ele>
        <time>2019-10-24T17:15:47Z</time>
        <extensions>
          <gpxtpx:TrackPointExtension xmlns:gpxtpx="http://www.garmin.com/xmlschemas/TrackPointExtension/v1">
            <gpxtpx:hr>128</gpxtpx:hr>
          </gpxtpx:TrackPointExtension>
        </extensions>
      </trkpt>
      <trkpt lat="45.23206" lon="5.86361">
        <ele>216.6</ele>
        <time>2019-10-24T17:15:54Z</time>
        <extensions>
          <gpxtpx:TrackPointExtension xmlns:gpxtpx="http://www.garmin.com/xmlschemas/TrackPointExtension/v1">
            <gpxtpx:hr>127</gpxtpx:hr>
          </gpxtpx:TrackPointExtension>
        </extensions>
      </trkpt>
      <trkpt lat="45.23219" lon="5.86383">
        <ele>216.6</ele>
        <time>2019-10-24T17:16:01Z</time>
        <extensions>
          <gpxtpx:TrackPointExtension xmlns:gpxtpx="http://www.garmin.com/xmlschemas/TrackPointExtension/v1">
            <gpxtpx:hr>129</gpxtpx:hr>
          </gpxtpx:TrackPointExtension>
        </extensions>
      </trkpt>
      <trkpt lat="45.23234" lon="5.86401">
        <ele>216.8</ele>
        <time>2019-10-24T17:16:09Z</time>
        <extensions>
          <gpxtpx:TrackPointExtension xmlns:gpxtpx="http://www.garmin.com/xmlschemas/TrackPointExtension/v1">
            <gpxtpx:hr>129</gpxtpx:hr>
          </gpxtpx:TrackPointExtension>
        </extensions>
      </trkpt>
      <trkpt lat="45.23249" lon="5.8642">
        <ele>216.8</ele>
        <time>2019-10-24T17:16:17Z</time>
        <extensions>
          <gpxtpx:TrackPointExtension xmlns:gpxtpx="http://www.garmin.com/xmlschemas/TrackPointExtension/v1">
            <gpxtpx:hr>131</gpxtpx:hr>
          </gpxtpx:TrackPointExtension>
        </extensions>
      </trkpt>
      <trkpt lat="45.23262" lon="5.8644">
        <ele>217</ele>
        <time>2019-10-24T17:16:25Z</time>
        <extensions>
          <gpxtpx:TrackPointExtension xmlns:gpxtpx="http://www.garmin.com/xmlschemas/TrackPointExtension/v1">
            <gpxtpx:hr>130</gpxtpx:hr>
          </gpxtpx:TrackPointExtension>
        </extensions>
      </trkpt>
      <trkpt lat="45.23271" lon="5.86461">
        <ele>217</ele>
        <time>2019-10-24T17:16:33Z</time>
        <extensions>
          <gpxtpx:TrackPointExtension xmlns:gpxtpx="http://www.garmin.com/xmlschemas/TrackPointExtension/v1">
            <gpxtpx:hr>130</gpxtpx:hr>
          </gpxtpx:TrackPointExtension>
        </extensions>
      </trkpt>
      <trkpt lat="45.23277" lon="5.86487">
        <ele>217.2</ele>
        <time>2019-10-24T17:16:41Z</time>
        <extensions>
          <gpxtpx:TrackPointExtension xmlns:gpxtpx="http://www.garmin.com/xmlschemas/TrackPointExtension/v1">
            <gpxtpx:hr>130</gpxtpx:hr>
          </gpxtpx:TrackPointExtension>
        </extensions>
      </trkpt>
      <trkpt lat="45.23282" lon="5.86512">
        <ele>217.2</ele>
        <time>2019-10-24T17:16:49Z</time>
        <extensions>
          <gpxtpx:TrackPointExtension xmlns:gpxtpx="http://www.garmin.com/xmlschemas/TrackPointExtension/v1">
            <gpxtpx:hr>131</gpxtpx:hr>
          </gpxtpx:TrackPointExtension>
        </extensions>
      </trkpt>
      <trkpt lat="45.23288" lon="5.8654">
        <ele>217.2</ele>
        <time>2019-10-24T17:16:58Z</time>
        <extensions>
          <gpxtpx:TrackPointExtension xmlns:gpxtpx="http://www.garmin.com/xmlschemas/TrackPointExtension/v1">
            <gpxtpx:hr>131</gpxtpx:hr>
          </gpxtpx:TrackPointExtension>
        </extensions>
      </trkpt>
      <trkpt lat="45.23292" lon="5.86568">
        <ele>217.4</ele>
        <time>2019-10-24T17:17:06Z</time>
        <extensions>
          <gpxtpx:TrackPointExtension xmlns:gpxtpx="http://www.garmin.com/xmlschemas/TrackPointExtension/v1">
            <gpxtpx:hr>131</gpxtpx:hr>
          </gpxtpx:TrackPointExtension>
        </extensions>
      </trkpt>
      <trkpt lat="45.23297" lon="5.86596">
        <ele>217.2</ele>
        <time>2019-10-24T17:17:14Z</time>
        <extensions>
          <gpxtpx:TrackPointExtension xmlns:gpxtpx="http://www.garmin.com/xmlschemas/TrackPointExtension/v1">
            <gpxtpx:hr>132</gpxtpx:hr>
          </gpxtpx:TrackPointExtension>
        </extensions>
      </trkpt>
      <trkpt lat="45.23301" lon="5.86622">
        <ele>217.2</ele>
        <time>2019-10-24T17:17:22Z</time>
        <extensions>
          <gpxtpx:TrackPointExtension xmlns:gpxtpx="http://www.garmin.com/xmlschemas/TrackPointExtension/v1">
            <gpxtpx:hr>134</gpxtpx:hr>
          </gpxtpx:TrackPointExtension>
        </extensions>
      </trkpt>
      <trkpt lat="45.23305" lon="5.86648">
        <ele>217</ele>
        <time>2019-10-24T17:17:30Z</time>
        <extensions>
          <gpxtpx:TrackPointExtension xmlns:gpxtpx="http://www.garmin.com/xmlschemas/TrackPointExtension/v1">
            <gpxtpx:hr>134</gpxtpx:hr>
          </gpxtpx:TrackPointExtension>
        </extensions>
      </trkpt>
      <trkpt lat="45.23317" lon="5.8667">
        <ele>217.2</ele>
        <time>2019-10-24T17:17:37Z</time>
        <extensions>
          <gpxtpx:TrackPointExtension xmlns:gpxtpx="http://www.garmin.com/xmlschemas/TrackPointExtension/v1">
            <gpxtpx:hr>133</gpxtpx:hr>
          </gpxtpx:TrackPointExtension>
        </extensions>
      </trkpt>
      <trkpt lat="45.23332" lon="5.86688">
        <ele>217.2</ele>
        <time>2019-10-24T17:17:44Z</time>
        <extensions>
          <gpxtpx:TrackPointExtension xmlns:gpxtpx="http://www.garmin.com/xmlschemas/TrackPointExtension/v1">
            <gpxtpx:hr>132</gpxtpx:hr>
          </gpxtpx:TrackPointExtension>
        </extensions>
      </trkpt>
      <trkpt lat="45.23333" lon="5.86692">
        <ele>217.2</ele>
        <time>2019-10-24T17:17:51Z</time>
        <extensions>
          <gpxtpx:TrackPointExtension xmlns:gpxtpx="http://www.garmin.com/xmlschemas/TrackPointExtension/v1">
            <gpxtpx:hr>132</gpxtpx:hr>
          </gpxtpx:TrackPointExtension>
        </extensions>
      </trkpt>
      <trkpt lat="45.23326" lon="5.86718">
        <ele>216.6</ele>
        <time>2019-10-24T17:18:00Z</time>
        <extensions>
          <gpxtpx:TrackPointExtension xmlns:gpxtpx="http://www.garmin.com/xmlschemas/TrackPointExtension/v1">
            <gpxtpx:hr>130</gpxtpx:hr>
          </gpxtpx:TrackPointExtension>
        </extensions>
      </trkpt>
      <trkpt lat="45.23316" lon="5.86741">
        <ele>217</ele>
        <time>2019-10-24T17:18:08Z</time>
        <extensions>
          <gpxtpx:TrackPointExtension xmlns:gpxtpx="http://www.garmin.com/xmlschemas/TrackPointExtension/v1">
            <gpxtpx:hr>131</gpxtpx:hr>
          </gpxtpx:TrackPointExtension>
        </extensions>
      </trkpt>
      <trkpt lat="45.23303" lon="5.86761">
        <ele>217</ele>
        <time>2019-10-24T17:18:16Z</time>
        <extensions>
          <gpxtpx:TrackPointExtension xmlns:gpxtpx="http://www.garmin.com/xmlschemas/TrackPointExtension/v1">
            <gpxtpx:hr>130</gpxtpx:hr>
          </gpxtpx:TrackPointExtension>
        </extensions>
      </trkpt>
      <trkpt lat="45.23288" lon="5.86781">
        <ele>217.2</ele>
        <time>2019-10-24T17:18:22Z</time>
        <extensions>
          <gpxtpx:TrackPointExtension xmlns:gpxtpx="http://www.garmin.com/xmlschemas/TrackPointExtension/v1">
            <gpxtpx:hr>130</gpxtpx:hr>
          </gpxtpx:TrackPointExtension>
        </extensions>
      </trkpt>
      <trkpt lat="45.23275" lon="5.86803">
        <ele>217.2</ele>
        <time>2019-10-24T17:18:30Z</time>
        <extensions>
          <gpxtpx:TrackPointExtension xmlns:gpxtpx="http://www.garmin.com/xmlschemas/TrackPointExtension/v1">
            <gpxtpx:hr>130</gpxtpx:hr>
          </gpxtpx:TrackPointExtension>
        </extensions>
      </trkpt>
      <trkpt lat="45.23262" lon="5.86824">
        <ele>217.2</ele>
        <time>2019-10-24T17:18:36Z</time>
        <extensions>
          <gpxtpx:TrackPointExtension xmlns:gpxtpx="http://www.garmin.com/xmlschemas/TrackPointExtension/v1">
            <gpxtpx:hr>131</gpxtpx:hr>
          </gpxtpx:TrackPointExtension>
        </extensions>
      </trkpt>
      <trkpt lat="45.23249" lon="5.86845">
        <ele>217.2</ele>
        <time>2019-10-24T17:18:44Z</time>
        <extensions>
          <gpxtpx:TrackPointExtension xmlns:gpxtpx="http://www.garmin.com/xmlschemas/TrackPointExtension/v1">
            <gpxtpx:hr>131</gpxtpx:hr>
          </gpxtpx:TrackPointExtension>
        </extensions>
      </trkpt>
      <trkpt lat="45.23233" lon="5.86861">
        <ele>217.2</ele>
        <time>2019-10-24T17:18:52Z</time>
        <extensions>
          <gpxtpx:TrackPointExtension xmlns:gpxtpx="http://www.garmin.com/xmlschemas/TrackPointExtension/v1">
            <gpxtpx:hr>130</gpxtpx:hr>
          </gpxtpx:TrackPointExtension>
        </extensions>
      </trkpt>
      <trkpt lat="45.23218" lon="5.86878">
        <ele>217</ele>
        <time>2019-10-24T17:19:00Z</time>
        <extensions>
          <gpxtpx:TrackPointExtension xmlns:gpxtpx="http://www.garmin.com/xmlschemas/TrackPointExtension/v1">
            <gpxtpx:hr>130</gpxtpx:hr>
          </gpxtpx:TrackPointExtension>
        </extensions>
      </trkpt>
      <trkpt lat="45.23216" lon="5.86904">
        <ele>217</ele>
        <time>2019-10-24T17:19:04Z</time>
        <extensions>
          <gpxtpx:TrackPointExtension xmlns:gpxtpx="http://www.garmin.com/xmlschemas/TrackPointExtension/v1">
            <gpxtpx:hr>128</gpxtpx:hr>
          </gpxtpx:TrackPointExtension>
        </extensions>
      </trkpt>
      <trkpt lat="45.23204" lon="5.86926">
        <ele>217.2</ele>
        <time>2019-10-24T17:19:13Z</time>
        <extensions>
          <gpxtpx:TrackPointExtension xmlns:gpxtpx="http://www.garmin.com/xmlschemas/TrackPointExtension/v1">
            <gpxtpx:hr>127</gpxtpx:hr>
          </gpxtpx:TrackPointExtension>
        </extensions>
      </trkpt>
      <trkpt lat="45.23192" lon="5.86948">
        <ele>217</ele>
        <time>2019-10-24T17:19:14Z</time>
        <extensions>
          <gpxtpx:TrackPointExtension xmlns:gpxtpx="http://www.garmin.com/xmlschemas/TrackPointExtension/v1">
            <gpxtpx:hr>128</gpxtpx:hr>
          </gpxtpx:TrackPointExtension>
        </extensions>
      </trkpt>
      <trkpt lat="45.2318" lon="5.86969">
        <ele>217</ele>
        <time>2019-10-24T17:19:23Z</time>
        <extensions>
          <gpxtpx:TrackPointExtension xmlns:gpxtpx="http://www.garmin.com/xmlschemas/TrackPointExtension/v1">
            <gpxtpx:hr>129</gpxtpx:hr>
          </gpxtpx:TrackPointExtension>
        </extensions>
      </trkpt>
      <trkpt lat="45.23168" lon="5.86989">
        <ele>217</ele>
        <time>2019-10-24T17:19:32Z</time>
        <extensions>
          <gpxtpx:TrackPointExtension xmlns:gpxtpx="http://www.garmin.com/xmlschemas/TrackPointExtension/v1">
            <gpxtpx:hr>129</gpxtpx:hr>
          </gpxtpx:TrackPointExtension>
        </extensions>
      </trkpt>
      <trkpt lat="45.23157" lon="5.87009">
        <ele>217</ele>
        <time>2019-10-24T17:19:40Z</time>
        <extensions>
          <gpxtpx:TrackPointExtension xmlns:gpxtpx="http://www.garmin.com/xmlschemas/TrackPointExtension/v1">
            <gpxtpx:hr>129</gpxtpx:hr>
          </gpxtpx:TrackPointExtension>
        </extensions>
      </trkpt>
      <trkpt lat="45.23145" lon="5.87029">
        <ele>217</ele>
        <time>2019-10-24T17:19:48Z</time>
        <extensions>
          <gpxtpx:TrackPointExtension xmlns:gpxtpx="http://www.garmin.com/xmlschemas/TrackPointExtension/v1">
            <gpxtpx:hr>130</gpxtpx:hr>
          </gpxtpx:TrackPointExtension>
        </extensions>
      </trkpt>
      <trkpt lat="45.23134" lon="5.87049">
        <ele>217</ele>
        <time>2019-10-24T17:19:55Z</time>
        <extensions>
          <gpxtpx:TrackPointExtension xmlns:gpxtpx="http://www.garmin.com/xmlschemas/TrackPointExtension/v1">
            <gpxtpx:hr>130</gpxtpx:hr>
          </gpxtpx:TrackPointExtension>
        </extensions>
      </trkpt>
      <trkpt lat="45.23125" lon="5.87073">
        <ele>217</ele>
        <time>2019-10-24T17:20:02Z</time>
        <extensions>
          <gpxtpx:TrackPointExtension xmlns:gpxtpx="http://www.garmin.com/xmlschemas/TrackPointExtension/v1">
            <gpxtpx:hr>130</gpxtpx:hr>
          </gpxtpx:TrackPointExtension>
        </extensions>
      </trkpt>
      <trkpt lat="45.23126" lon="5.87101">
        <ele>217.2</ele>
        <time>2019-10-24T17:20:10Z</time>
        <extensions>
          <gpxtpx:TrackPointExtension xmlns:gpxtpx="http://www.garmin.com/xmlschemas/TrackPointExtension/v1">
            <gpxtpx:hr>131</gpxtpx:hr>
          </gpxtpx:TrackPointExtension>
        </extensions>
      </trkpt>
      <trkpt lat="45.23128" lon="5.87129">
        <ele>217.2</ele>
        <time>2019-10-24T17:20:19Z</time>
        <extensions>
          <gpxtpx:TrackPointExtension xmlns:gpxtpx="http://www.garmin.com/xmlschemas/TrackPointExtension/v1">
            <gpxtpx:hr>128</gpxtpx:hr>
          </gpxtpx:TrackPointExtension>
        </extensions>
      </trkpt>
      <trkpt lat="45.23131" lon="5.87151">
        <ele>217</ele>
        <time>2019-10-24T17:20:27Z</time>
        <extensions>
          <gpxtpx:TrackPointExtension xmlns:gpxtpx="http://www.garmin.com/xmlschemas/TrackPointExtension/v1">
            <gpxtpx:hr>125</gpxtpx:hr>
          </gpxtpx:TrackPointExtension>
        </extensions>
      </trkpt>
      <trkpt lat="45.23136" lon="5.87179">
        <ele>217</ele>
        <time>2019-10-24T17:20:30Z</time>
        <extensions>
          <gpxtpx:TrackPointExtension xmlns:gpxtpx="http://www.garmin.com/xmlschemas/TrackPointExtension/v1">
            <gpxtpx:hr>127</gpxtpx:hr>
          </gpxtpx:TrackPointExtension>
        </extensions>
      </trkpt>
      <trkpt lat="45.23136" lon="5.872">
        <ele>216.6</ele>
        <time>2019-10-24T17:20:38Z</time>
        <extensions>
          <gpxtpx:TrackPointExtension xmlns:gpxtpx="http://www.garmin.com/xmlschemas/TrackPointExtension/v1">
            <gpxtpx:hr>130</gpxtpx:hr>
          </gpxtpx:TrackPointExtension>
        </extensions>
      </trkpt>
      <trkpt lat="45.23139" lon="5.87227">
        <ele>217</ele>
        <time>2019-10-24T17:20:45Z</time>
        <extensions>
          <gpxtpx:TrackPointExtension xmlns:gpxtpx="http://www.garmin.com/xmlschemas/TrackPointExtension/v1">
            <gpxtpx:hr>131</gpxtpx:hr>
          </gpxtpx:TrackPointExtension>
        </extensions>
      </trkpt>
      <trkpt lat="45.23141" lon="5.87254">
        <ele>216.4</ele>
        <time>2019-10-24T17:20:52Z</time>
        <extensions>
          <gpxtpx:TrackPointExtension xmlns:gpxtpx="http://www.garmin.com/xmlschemas/TrackPointExtension/v1">
            <gpxtpx:hr>130</gpxtpx:hr>
          </gpxtpx:TrackPointExtension>
        </extensions>
      </trkpt>
      <trkpt lat="45.23141" lon="5.87282">
        <ele>216.6</ele>
        <time>2019-10-24T17:21:00Z</time>
        <extensions>
          <gpxtpx:TrackPointExtension xmlns:gpxtpx="http://www.garmin.com/xmlschemas/TrackPointExtension/v1">
            <gpxtpx:hr>129</gpxtpx:hr>
          </gpxtpx:TrackPointExtension>
        </extensions>
      </trkpt>
      <trkpt lat="45.23141" lon="5.87295">
        <ele>216.4</ele>
        <time>2019-10-24T17:21:08Z</time>
        <extensions>
          <gpxtpx:TrackPointExtension xmlns:gpxtpx="http://www.garmin.com/xmlschemas/TrackPointExtension/v1">
            <gpxtpx:hr>129</gpxtpx:hr>
          </gpxtpx:TrackPointExtension>
        </extensions>
      </trkpt>
      <trkpt lat="45.2314" lon="5.87324">
        <ele>216.2</ele>
        <time>2019-10-24T17:21:16Z</time>
        <extensions>
          <gpxtpx:TrackPointExtension xmlns:gpxtpx="http://www.garmin.com/xmlschemas/TrackPointExtension/v1">
            <gpxtpx:hr>129</gpxtpx:hr>
          </gpxtpx:TrackPointExtension>
        </extensions>
      </trkpt>
      <trkpt lat="45.23141" lon="5.87327">
        <ele>216.4</ele>
        <time>2019-10-24T17:21:23Z</time>
        <extensions>
          <gpxtpx:TrackPointExtension xmlns:gpxtpx="http://www.garmin.com/xmlschemas/TrackPointExtension/v1">
            <gpxtpx:hr>129</gpxtpx:hr>
          </gpxtpx:TrackPointExtension>
        </extensions>
      </trkpt>
      <trkpt lat="45.23149" lon="5.87352">
        <ele>216.4</ele>
        <time>2019-10-24T17:21:31Z</time>
        <extensions>
          <gpxtpx:TrackPointExtension xmlns:gpxtpx="http://www.garmin.com/xmlschemas/TrackPointExtension/v1">
            <gpxtpx:hr>129</gpxtpx:hr>
          </gpxtpx:TrackPointExtension>
        </extensions>
      </trkpt>
      <trkpt lat="45.23165" lon="5.87367">
        <ele>216.2</ele>
        <time>2019-10-24T17:21:39Z</time>
        <extensions>
          <gpxtpx:TrackPointExtension xmlns:gpxtpx="http://www.garmin.com/xmlschemas/TrackPointExtension/v1">
            <gpxtpx:hr>128</gpxtpx:hr>
          </gpxtpx:TrackPointExtension>
        </extensions>
      </trkpt>
      <trkpt lat="45.23179" lon="5.87383">
        <ele>216.2</ele>
        <time>2019-10-24T17:21:45Z</time>
        <extensions>
          <gpxtpx:TrackPointExtension xmlns:gpxtpx="http://www.garmin.com/xmlschemas/TrackPointExtension/v1">
            <gpxtpx:hr>127</gpxtpx:hr>
          </gpxtpx:TrackPointExtension>
        </extensions>
      </trkpt>
      <trkpt lat="45.23186" lon="5.87409">
        <ele>216.2</ele>
        <time>2019-10-24T17:21:52Z</time>
        <extensions>
          <gpxtpx:TrackPointExtension xmlns:gpxtpx="http://www.garmin.com/xmlschemas/TrackPointExtension/v1">
            <gpxtpx:hr>128</gpxtpx:hr>
          </gpxtpx:TrackPointExtension>
        </extensions>
      </trkpt>
      <trkpt lat="45.23184" lon="5.87435">
        <ele>216.2</ele>
        <time>2019-10-24T17:21:57Z</time>
        <extensions>
          <gpxtpx:TrackPointExtension xmlns:gpxtpx="http://www.garmin.com/xmlschemas/TrackPointExtension/v1">
            <gpxtpx:hr>129</gpxtpx:hr>
          </gpxtpx:TrackPointExtension>
        </extensions>
      </trkpt>
      <trkpt lat="45.23182" lon="5.87461">
        <ele>216</ele>
        <time>2019-10-24T17:22:05Z</time>
        <extensions>
          <gpxtpx:TrackPointExtension xmlns:gpxtpx="http://www.garmin.com/xmlschemas/TrackPointExtension/v1">
            <gpxtpx:hr>130</gpxtpx:hr>
          </gpxtpx:TrackPointExtension>
        </extensions>
      </trkpt>
      <trkpt lat="45.23184" lon="5.87486">
        <ele>216.2</ele>
        <time>2019-10-24T17:22:06Z</time>
        <extensions>
          <gpxtpx:TrackPointExtension xmlns:gpxtpx="http://www.garmin.com/xmlschemas/TrackPointExtension/v1">
            <gpxtpx:hr>130</gpxtpx:hr>
          </gpxtpx:TrackPointExtension>
        </extensions>
      </trkpt>
      <trkpt lat="45.23201" lon="5.87496">
        <ele>216.4</ele>
        <time>2019-10-24T17:22:15Z</time>
        <extensions>
          <gpxtpx:TrackPointExtension xmlns:gpxtpx="http://www.garmin.com/xmlschemas/TrackPointExtension/v1">
            <gpxtpx:hr>129</gpxtpx:hr>
          </gpxtpx:TrackPointExtension>
        </extensions>
      </trkpt>
      <trkpt lat="45.2322" lon="5.87502">
        <ele>216.2</ele>
        <time>2019-10-24T17:22:16Z</time>
        <extensions>
          <gpxtpx:TrackPointExtension xmlns:gpxtpx="http://www.garmin.com/xmlschemas/TrackPointExtension/v1">
            <gpxtpx:hr>129</gpxtpx:hr>
          </gpxtpx:TrackPointExtension>
        </extensions>
      </trkpt>
      <trkpt lat="45.23225" lon="5.87506">
        <ele>216.4</ele>
        <time>2019-10-24T17:22:19Z</time>
        <extensions>
          <gpxtpx:TrackPointExtension xmlns:gpxtpx="http://www.garmin.com/xmlschemas/TrackPointExtension/v1">
            <gpxtpx:hr>130</gpxtpx:hr>
          </gpxtpx:TrackPointExtension>
        </extensions>
      </trkpt>
      <trkpt lat="45.23243" lon="5.87511">
        <ele>216.6</ele>
        <time>2019-10-24T17:22:23Z</time>
        <extensions>
          <gpxtpx:TrackPointExtension xmlns:gpxtpx="http://www.garmin.com/xmlschemas/TrackPointExtension/v1">
            <gpxtpx:hr>131</gpxtpx:hr>
          </gpxtpx:TrackPointExtension>
        </extensions>
      </trkpt>
      <trkpt lat="45.23258" lon="5.87523">
        <ele>216.6</ele>
        <time>2019-10-24T17:22:25Z</time>
        <extensions>
          <gpxtpx:TrackPointExtension xmlns:gpxtpx="http://www.garmin.com/xmlschemas/TrackPointExtension/v1">
            <gpxtpx:hr>131</gpxtpx:hr>
          </gpxtpx:TrackPointExtension>
        </extensions>
      </trkpt>
      <trkpt lat="45.23269" lon="5.87544">
        <ele>216.8</ele>
        <time>2019-10-24T17:22:27Z</time>
        <extensions>
          <gpxtpx:TrackPointExtension xmlns:gpxtpx="http://www.garmin.com/xmlschemas/TrackPointExtension/v1">
            <gpxtpx:hr>133</gpxtpx:hr>
          </gpxtpx:TrackPointExtension>
        </extensions>
      </trkpt>
      <trkpt lat="45.23279" lon="5.87566">
        <ele>216.8</ele>
        <time>2019-10-24T17:22:29Z</time>
        <extensions>
          <gpxtpx:TrackPointExtension xmlns:gpxtpx="http://www.garmin.com/xmlschemas/TrackPointExtension/v1">
            <gpxtpx:hr>132</gpxtpx:hr>
          </gpxtpx:TrackPointExtension>
        </extensions>
      </trkpt>
      <trkpt lat="45.2329" lon="5.8759">
        <ele>216.8</ele>
        <time>2019-10-24T17:22:33Z</time>
        <extensions>
          <gpxtpx:TrackPointExtension xmlns:gpxtpx="http://www.garmin.com/xmlschemas/TrackPointExtension/v1">
            <gpxtpx:hr>131</gpxtpx:hr>
          </gpxtpx:TrackPointExtension>
        </extensions>
      </trkpt>
      <trkpt lat="45.233" lon="5.87613">
        <ele>216.8</ele>
        <time>2019-10-24T17:22:37Z</time>
        <extensions>
          <gpxtpx:TrackPointExtension xmlns:gpxtpx="http://www.garmin.com/xmlschemas/TrackPointExtension/v1">
            <gpxtpx:hr>130</gpxtpx:hr>
          </gpxtpx:TrackPointExtension>
        </extensions>
      </trkpt>
      <trkpt lat="45.2331" lon="5.87635">
        <ele>216.8</ele>
        <time>2019-10-24T17:22:46Z</time>
        <extensions>
          <gpxtpx:TrackPointExtension xmlns:gpxtpx="http://www.garmin.com/xmlschemas/TrackPointExtension/v1">
            <gpxtpx:hr>130</gpxtpx:hr>
          </gpxtpx:TrackPointExtension>
        </extensions>
      </trkpt>
      <trkpt lat="45.23319" lon="5.87658">
        <ele>216.8</ele>
        <time>2019-10-24T17:22:52Z</time>
        <extensions>
          <gpxtpx:TrackPointExtension xmlns:gpxtpx="http://www.garmin.com/xmlschemas/TrackPointExtension/v1">
            <gpxtpx:hr>130</gpxtpx:hr>
          </gpxtpx:TrackPointExtension>
        </extensions>
      </trkpt>
      <trkpt lat="45.23325" lon="5.87682">
        <ele>217</ele>
        <time>2019-10-24T17:22:58Z</time>
        <extensions>
          <gpxtpx:TrackPointExtension xmlns:gpxtpx="http://www.garmin.com/xmlschemas/TrackPointExtension/v1">
            <gpxtpx:hr>129</gpxtpx:hr>
          </gpxtpx:TrackPointExtension>
        </extensions>
      </trkpt>
      <trkpt lat="45.23318" lon="5.87705">
        <ele>217.2</ele>
        <time>2019-10-24T17:23:02Z</time>
        <extensions>
          <gpxtpx:TrackPointExtension xmlns:gpxtpx="http://www.garmin.com/xmlschemas/TrackPointExtension/v1">
            <gpxtpx:hr>128</gpxtpx:hr>
          </gpxtpx:TrackPointExtension>
        </extensions>
      </trkpt>
      <trkpt lat="45.23305" lon="5.87726">
        <ele>217.4</ele>
        <time>2019-10-24T17:23:05Z</time>
        <extensions>
          <gpxtpx:TrackPointExtension xmlns:gpxtpx="http://www.garmin.com/xmlschemas/TrackPointExtension/v1">
            <gpxtpx:hr>130</gpxtpx:hr>
          </gpxtpx:TrackPointExtension>
        </extensions>
      </trkpt>
      <trkpt lat="45.23297" lon="5.8774">
        <ele>218</ele>
        <time>2019-10-24T17:23:06Z</time>
        <extensions>
          <gpxtpx:TrackPointExtension xmlns:gpxtpx="http://www.garmin.com/xmlschemas/TrackPointExtension/v1">
            <gpxtpx:hr>131</gpxtpx:hr>
          </gpxtpx:TrackPointExtension>
        </extensions>
      </trkpt>
      <trkpt lat="45.23285" lon="5.87763">
        <ele>218.8</ele>
        <time>2019-10-24T17:23:09Z</time>
        <extensions>
          <gpxtpx:TrackPointExtension xmlns:gpxtpx="http://www.garmin.com/xmlschemas/TrackPointExtension/v1">
            <gpxtpx:hr>132</gpxtpx:hr>
          </gpxtpx:TrackPointExtension>
        </extensions>
      </trkpt>
      <trkpt lat="45.23283" lon="5.87765">
        <ele>219</ele>
        <time>2019-10-24T17:23:12Z</time>
        <extensions>
          <gpxtpx:TrackPointExtension xmlns:gpxtpx="http://www.garmin.com/xmlschemas/TrackPointExtension/v1">
            <gpxtpx:hr>133</gpxtpx:hr>
          </gpxtpx:TrackPointExtension>
        </extensions>
      </trkpt>
      <trkpt lat="45.23274" lon="5.87788">
        <ele>220</ele>
        <time>2019-10-24T17:23:14Z</time>
        <extensions>
          <gpxtpx:TrackPointExtension xmlns:gpxtpx="http://www.garmin.com/xmlschemas/TrackPointExtension/v1">
            <gpxtpx:hr>135</gpxtpx:hr>
          </gpxtpx:TrackPointExtension>
        </extensions>
      </trkpt>
      <trkpt lat="45.23274" lon="5.8779">
        <ele>220.2</ele>
        <time>2019-10-24T17:23:19Z</time>
        <extensions>
          <gpxtpx:TrackPointExtension xmlns:gpxtpx="http://www.garmin.com/xmlschemas/TrackPointExtension/v1">
            <gpxtpx:hr>135</gpxtpx:hr>
          </gpxtpx:TrackPointExtension>
        </extensions>
      </trkpt>
      <trkpt lat="45.23277" lon="5.87797">
        <ele>221.4</ele>
        <time>2019-10-24T17:23:24Z</time>
        <extensions>
          <gpxtpx:TrackPointExtension xmlns:gpxtpx="http://www.garmin.com/xmlschemas/TrackPointExtension/v1">
            <gpxtpx:hr>135</gpxtpx:hr>
          </gpxtpx:TrackPointExtension>
        </extensions>
      </trkpt>
      <trkpt lat="45.23283" lon="5.87804">
        <ele>222.4</ele>
        <time>2019-10-24T17:23:32Z</time>
        <extensions>
          <gpxtpx:TrackPointExtension xmlns:gpxtpx="http://www.garmin.com/xmlschemas/TrackPointExtension/v1">
            <gpxtpx:hr>137</gpxtpx:hr>
          </gpxtpx:TrackPointExtension>
        </extensions>
      </trkpt>
      <trkpt lat="45.23286" lon="5.87808">
        <ele>222.8</ele>
        <time>2019-10-24T17:23:36Z</time>
        <extensions>
          <gpxtpx:TrackPointExtension xmlns:gpxtpx="http://www.garmin.com/xmlschemas/TrackPointExtension/v1">
            <gpxtpx:hr>138</gpxtpx:hr>
          </gpxtpx:TrackPointExtension>
        </extensions>
      </trkpt>
      <trkpt lat="45.23286" lon="5.87809">
        <ele>223.2</ele>
        <time>2019-10-24T17:23:43Z</time>
        <extensions>
          <gpxtpx:TrackPointExtension xmlns:gpxtpx="http://www.garmin.com/xmlschemas/TrackPointExtension/v1">
            <gpxtpx:hr>138</gpxtpx:hr>
          </gpxtpx:TrackPointExtension>
        </extensions>
      </trkpt>
      <trkpt lat="45.23284" lon="5.87806">
        <ele>223.6</ele>
        <time>2019-10-24T17:23:51Z</time>
        <extensions>
          <gpxtpx:TrackPointExtension xmlns:gpxtpx="http://www.garmin.com/xmlschemas/TrackPointExtension/v1">
            <gpxtpx:hr>139</gpxtpx:hr>
          </gpxtpx:TrackPointExtension>
        </extensions>
      </trkpt>
      <trkpt lat="45.23278" lon="5.87796">
        <ele>225</ele>
        <time>2019-10-24T17:23:59Z</time>
        <extensions>
          <gpxtpx:TrackPointExtension xmlns:gpxtpx="http://www.garmin.com/xmlschemas/TrackPointExtension/v1">
            <gpxtpx:hr>140</gpxtpx:hr>
          </gpxtpx:TrackPointExtension>
        </extensions>
      </trkpt>
      <trkpt lat="45.23272" lon="5.87788">
        <ele>226</ele>
        <time>2019-10-24T17:24:04Z</time>
        <extensions>
          <gpxtpx:TrackPointExtension xmlns:gpxtpx="http://www.garmin.com/xmlschemas/TrackPointExtension/v1">
            <gpxtpx:hr>142</gpxtpx:hr>
          </gpxtpx:TrackPointExtension>
        </extensions>
      </trkpt>
      <trkpt lat="45.23257" lon="5.87806">
        <ele>225.8</ele>
        <time>2019-10-24T17:24:11Z</time>
        <extensions>
          <gpxtpx:TrackPointExtension xmlns:gpxtpx="http://www.garmin.com/xmlschemas/TrackPointExtension/v1">
            <gpxtpx:hr>144</gpxtpx:hr>
          </gpxtpx:TrackPointExtension>
        </extensions>
      </trkpt>
      <trkpt lat="45.23246" lon="5.8782">
        <ele>225</ele>
        <time>2019-10-24T17:24:15Z</time>
        <extensions>
          <gpxtpx:TrackPointExtension xmlns:gpxtpx="http://www.garmin.com/xmlschemas/TrackPointExtension/v1">
            <gpxtpx:hr>145</gpxtpx:hr>
          </gpxtpx:TrackPointExtension>
        </extensions>
      </trkpt>
      <trkpt lat="45.23238" lon="5.87835">
        <ele>223.8</ele>
        <time>2019-10-24T17:24:23Z</time>
        <extensions>
          <gpxtpx:TrackPointExtension xmlns:gpxtpx="http://www.garmin.com/xmlschemas/TrackPointExtension/v1">
            <gpxtpx:hr>144</gpxtpx:hr>
          </gpxtpx:TrackPointExtension>
        </extensions>
      </trkpt>
      <trkpt lat="45.23242" lon="5.87844">
        <ele>222.6</ele>
        <time>2019-10-24T17:24:31Z</time>
        <extensions>
          <gpxtpx:TrackPointExtension xmlns:gpxtpx="http://www.garmin.com/xmlschemas/TrackPointExtension/v1">
            <gpxtpx:hr>143</gpxtpx:hr>
          </gpxtpx:TrackPointExtension>
        </extensions>
      </trkpt>
      <trkpt lat="45.23245" lon="5.8785">
        <ele>221.6</ele>
        <time>2019-10-24T17:24:39Z</time>
        <extensions>
          <gpxtpx:TrackPointExtension xmlns:gpxtpx="http://www.garmin.com/xmlschemas/TrackPointExtension/v1">
            <gpxtpx:hr>142</gpxtpx:hr>
          </gpxtpx:TrackPointExtension>
        </extensions>
      </trkpt>
      <trkpt lat="45.23244" lon="5.8785">
        <ele>221.4</ele>
        <time>2019-10-24T17:24:47Z</time>
        <extensions>
          <gpxtpx:TrackPointExtension xmlns:gpxtpx="http://www.garmin.com/xmlschemas/TrackPointExtension/v1">
            <gpxtpx:hr>141</gpxtpx:hr>
          </gpxtpx:TrackPointExtension>
        </extensions>
      </trkpt>
      <trkpt lat="45.2324" lon="5.87845">
        <ele>220.2</ele>
        <time>2019-10-24T17:24:54Z</time>
        <extensions>
          <gpxtpx:TrackPointExtension xmlns:gpxtpx="http://www.garmin.com/xmlschemas/TrackPointExtension/v1">
            <gpxtpx:hr>139</gpxtpx:hr>
          </gpxtpx:TrackPointExtension>
        </extensions>
      </trkpt>
      <trkpt lat="45.23235" lon="5.87838">
        <ele>219.2</ele>
        <time>2019-10-24T17:25:01Z</time>
        <extensions>
          <gpxtpx:TrackPointExtension xmlns:gpxtpx="http://www.garmin.com/xmlschemas/TrackPointExtension/v1">
            <gpxtpx:hr>137</gpxtpx:hr>
          </gpxtpx:TrackPointExtension>
        </extensions>
      </trkpt>
      <trkpt lat="45.23234" lon="5.87832">
        <ele>219.2</ele>
        <time>2019-10-24T17:25:08Z</time>
        <extensions>
          <gpxtpx:TrackPointExtension xmlns:gpxtpx="http://www.garmin.com/xmlschemas/TrackPointExtension/v1">
            <gpxtpx:hr>136</gpxtpx:hr>
          </gpxtpx:TrackPointExtension>
        </extensions>
      </trkpt>
      <trkpt lat="45.23241" lon="5.87818">
        <ele>219.2</ele>
        <time>2019-10-24T17:25:15Z</time>
        <extensions>
          <gpxtpx:TrackPointExtension xmlns:gpxtpx="http://www.garmin.com/xmlschemas/TrackPointExtension/v1">
            <gpxtpx:hr>133</gpxtpx:hr>
          </gpxtpx:TrackPointExtension>
        </extensions>
      </trkpt>
      <trkpt lat="45.23248" lon="5.87804">
        <ele>219.2</ele>
        <time>2019-10-24T17:25:19Z</time>
        <extensions>
          <gpxtpx:TrackPointExtension xmlns:gpxtpx="http://www.garmin.com/xmlschemas/TrackPointExtension/v1">
            <gpxtpx:hr>131</gpxtpx:hr>
          </gpxtpx:TrackPointExtension>
        </extensions>
      </trkpt>
      <trkpt lat="45.23234" lon="5.87783">
        <ele>219</ele>
        <time>2019-10-24T17:25:27Z</time>
        <extensions>
          <gpxtpx:TrackPointExtension xmlns:gpxtpx="http://www.garmin.com/xmlschemas/TrackPointExtension/v1">
            <gpxtpx:hr>130</gpxtpx:hr>
          </gpxtpx:TrackPointExtension>
        </extensions>
      </trkpt>
      <trkpt lat="45.2323" lon="5.87773">
        <ele>219</ele>
        <time>2019-10-24T17:25:35Z</time>
        <extensions>
          <gpxtpx:TrackPointExtension xmlns:gpxtpx="http://www.garmin.com/xmlschemas/TrackPointExtension/v1">
            <gpxtpx:hr>130</gpxtpx:hr>
          </gpxtpx:TrackPointExtension>
        </extensions>
      </trkpt>
      <trkpt lat="45.23217" lon="5.87754">
        <ele>219.2</ele>
        <time>2019-10-24T17:25:44Z</time>
        <extensions>
          <gpxtpx:TrackPointExtension xmlns:gpxtpx="http://www.garmin.com/xmlschemas/TrackPointExtension/v1">
            <gpxtpx:hr>129</gpxtpx:hr>
          </gpxtpx:TrackPointExtension>
        </extensions>
      </trkpt>
      <trkpt lat="45.23207" lon="5.87732">
        <ele>219.2</ele>
        <time>2019-10-24T17:25:52Z</time>
        <extensions>
          <gpxtpx:TrackPointExtension xmlns:gpxtpx="http://www.garmin.com/xmlschemas/TrackPointExtension/v1">
            <gpxtpx:hr>129</gpxtpx:hr>
          </gpxtpx:TrackPointExtension>
        </extensions>
      </trkpt>
      <trkpt lat="45.23194" lon="5.87709">
        <ele>218.6</ele>
        <time>2019-10-24T17:25:59Z</time>
        <extensions>
          <gpxtpx:TrackPointExtension xmlns:gpxtpx="http://www.garmin.com/xmlschemas/TrackPointExtension/v1">
            <gpxtpx:hr>129</gpxtpx:hr>
          </gpxtpx:TrackPointExtension>
        </extensions>
      </trkpt>
      <trkpt lat="45.23185" lon="5.87695">
        <ele>218.2</ele>
        <time>2019-10-24T17:26:07Z</time>
        <extensions>
          <gpxtpx:TrackPointExtension xmlns:gpxtpx="http://www.garmin.com/xmlschemas/TrackPointExtension/v1">
            <gpxtpx:hr>128</gpxtpx:hr>
          </gpxtpx:TrackPointExtension>
        </extensions>
      </trkpt>
      <trkpt lat="45.23171" lon="5.87675">
        <ele>217.4</ele>
        <time>2019-10-24T17:26:15Z</time>
        <extensions>
          <gpxtpx:TrackPointExtension xmlns:gpxtpx="http://www.garmin.com/xmlschemas/TrackPointExtension/v1">
            <gpxtpx:hr>129</gpxtpx:hr>
          </gpxtpx:TrackPointExtension>
        </extensions>
      </trkpt>
      <trkpt lat="45.23163" lon="5.87665">
        <ele>217</ele>
        <time>2019-10-24T17:26:23Z</time>
        <extensions>
          <gpxtpx:TrackPointExtension xmlns:gpxtpx="http://www.garmin.com/xmlschemas/TrackPointExtension/v1">
            <gpxtpx:hr>129</gpxtpx:hr>
          </gpxtpx:TrackPointExtension>
        </extensions>
      </trkpt>
      <trkpt lat="45.23147" lon="5.87648">
        <ele>216.4</ele>
        <time>2019-10-24T17:26:31Z</time>
        <extensions>
          <gpxtpx:TrackPointExtension xmlns:gpxtpx="http://www.garmin.com/xmlschemas/TrackPointExtension/v1">
            <gpxtpx:hr>128</gpxtpx:hr>
          </gpxtpx:TrackPointExtension>
        </extensions>
      </trkpt>
      <trkpt lat="45.23132" lon="5.87628">
        <ele>216.2</ele>
        <time>2019-10-24T17:26:39Z</time>
        <extensions>
          <gpxtpx:TrackPointExtension xmlns:gpxtpx="http://www.garmin.com/xmlschemas/TrackPointExtension/v1">
            <gpxtpx:hr>126</gpxtpx:hr>
          </gpxtpx:TrackPointExtension>
        </extensions>
      </trkpt>
      <trkpt lat="45.2312" lon="5.87607">
        <ele>216.2</ele>
        <time>2019-10-24T17:26:48Z</time>
        <extensions>
          <gpxtpx:TrackPointExtension xmlns:gpxtpx="http://www.garmin.com/xmlschemas/TrackPointExtension/v1">
            <gpxtpx:hr>127</gpxtpx:hr>
          </gpxtpx:TrackPointExtension>
        </extensions>
      </trkpt>
      <trkpt lat="45.23108" lon="5.87586">
        <ele>216</ele>
        <time>2019-10-24T17:26:56Z</time>
        <extensions>
          <gpxtpx:TrackPointExtension xmlns:gpxtpx="http://www.garmin.com/xmlschemas/TrackPointExtension/v1">
            <gpxtpx:hr>128</gpxtpx:hr>
          </gpxtpx:TrackPointExtension>
        </extensions>
      </trkpt>
      <trkpt lat="45.23094" lon="5.87568">
        <ele>216</ele>
        <time>2019-10-24T17:27:03Z</time>
        <extensions>
          <gpxtpx:TrackPointExtension xmlns:gpxtpx="http://www.garmin.com/xmlschemas/TrackPointExtension/v1">
            <gpxtpx:hr>129</gpxtpx:hr>
          </gpxtpx:TrackPointExtension>
        </extensions>
      </trkpt>
      <trkpt lat="45.23081" lon="5.87551">
        <ele>215.8</ele>
        <time>2019-10-24T17:27:11Z</time>
        <extensions>
          <gpxtpx:TrackPointExtension xmlns:gpxtpx="http://www.garmin.com/xmlschemas/TrackPointExtension/v1">
            <gpxtpx:hr>130</gpxtpx:hr>
          </gpxtpx:TrackPointExtension>
        </extensions>
      </trkpt>
      <trkpt lat="45.23069" lon="5.87532">
        <ele>215.6</ele>
        <time>2019-10-24T17:27:19Z</time>
        <extensions>
          <gpxtpx:TrackPointExtension xmlns:gpxtpx="http://www.garmin.com/xmlschemas/TrackPointExtension/v1">
            <gpxtpx:hr>131</gpxtpx:hr>
          </gpxtpx:TrackPointExtension>
        </extensions>
      </trkpt>
      <trkpt lat="45.23055" lon="5.87513">
        <ele>215.6</ele>
        <time>2019-10-24T17:27:21Z</time>
        <extensions>
          <gpxtpx:TrackPointExtension xmlns:gpxtpx="http://www.garmin.com/xmlschemas/TrackPointExtension/v1">
            <gpxtpx:hr>131</gpxtpx:hr>
          </gpxtpx:TrackPointExtension>
        </extensions>
      </trkpt>
      <trkpt lat="45.23047" lon="5.87511">
        <ele>215.8</ele>
        <time>2019-10-24T17:27:28Z</time>
        <extensions>
          <gpxtpx:TrackPointExtension xmlns:gpxtpx="http://www.garmin.com/xmlschemas/TrackPointExtension/v1">
            <gpxtpx:hr>131</gpxtpx:hr>
          </gpxtpx:TrackPointExtension>
        </extensions>
      </trkpt>
      <trkpt lat="45.23031" lon="5.87528">
        <ele>215.8</ele>
        <time>2019-10-24T17:27:36Z</time>
        <extensions>
          <gpxtpx:TrackPointExtension xmlns:gpxtpx="http://www.garmin.com/xmlschemas/TrackPointExtension/v1">
            <gpxtpx:hr>131</gpxtpx:hr>
          </gpxtpx:TrackPointExtension>
        </extensions>
      </trkpt>
      <trkpt lat="45.23013" lon="5.87527">
        <ele>216.8</ele>
        <time>2019-10-24T17:27:43Z</time>
        <extensions>
          <gpxtpx:TrackPointExtension xmlns:gpxtpx="http://www.garmin.com/xmlschemas/TrackPointExtension/v1">
            <gpxtpx:hr>133</gpxtpx:hr>
          </gpxtpx:TrackPointExtension>
        </extensions>
      </trkpt>
      <trkpt lat="45.22994" lon="5.87522">
        <ele>216.2</ele>
        <time>2019-10-24T17:27:54Z</time>
        <extensions>
          <gpxtpx:TrackPointExtension xmlns:gpxtpx="http://www.garmin.com/xmlschemas/TrackPointExtension/v1">
            <gpxtpx:hr>133</gpxtpx:hr>
          </gpxtpx:TrackPointExtension>
        </extensions>
      </trkpt>
      <trkpt lat="45.22975" lon="5.87524">
        <ele>216.2</ele>
        <time>2019-10-24T17:28:02Z</time>
        <extensions>
          <gpxtpx:TrackPointExtension xmlns:gpxtpx="http://www.garmin.com/xmlschemas/TrackPointExtension/v1">
            <gpxtpx:hr>133</gpxtpx:hr>
          </gpxtpx:TrackPointExtension>
        </extensions>
      </trkpt>
      <trkpt lat="45.22957" lon="5.87516">
        <ele>216.2</ele>
        <time>2019-10-24T17:28:10Z</time>
        <extensions>
          <gpxtpx:TrackPointExtension xmlns:gpxtpx="http://www.garmin.com/xmlschemas/TrackPointExtension/v1">
            <gpxtpx:hr>132</gpxtpx:hr>
          </gpxtpx:TrackPointExtension>
        </extensions>
      </trkpt>
      <trkpt lat="45.22938" lon="5.87508">
        <ele>216.2</ele>
        <time>2019-10-24T16:43:42Z</time>
        <extensions>
          <gpxtpx:TrackPointExtension xmlns:gpxtpx="http://www.garmin.com/xmlschemas/TrackPointExtension/v1">
            <gpxtpx:hr>132</gpxtpx:hr>
          </gpxtpx:TrackPointExtension>
        </extensions>
      </trkpt>
      <trkpt lat="45.22923" lon="5.87491">
        <ele>216</ele>
        <time>2019-10-24T16:43:51Z</time>
        <extensions>
          <gpxtpx:TrackPointExtension xmlns:gpxtpx="http://www.garmin.com/xmlschemas/TrackPointExtension/v1">
            <gpxtpx:hr>131</gpxtpx:hr>
          </gpxtpx:TrackPointExtension>
        </extensions>
      </trkpt>
      <trkpt lat="45.22908" lon="5.87473">
        <ele>216</ele>
        <time>2019-10-24T16:44:00Z</time>
        <extensions>
          <gpxtpx:TrackPointExtension xmlns:gpxtpx="http://www.garmin.com/xmlschemas/TrackPointExtension/v1">
            <gpxtpx:hr>131</gpxtpx:hr>
          </gpxtpx:TrackPointExtension>
        </extensions>
      </trkpt>
      <trkpt lat="45.22894" lon="5.87452">
        <ele>216</ele>
        <time>2019-10-24T16:44:08Z</time>
        <extensions>
          <gpxtpx:TrackPointExtension xmlns:gpxtpx="http://www.garmin.com/xmlschemas/TrackPointExtension/v1">
            <gpxtpx:hr>130</gpxtpx:hr>
          </gpxtpx:TrackPointExtension>
        </extensions>
      </trkpt>
      <trkpt lat="45.22881" lon="5.87431">
        <ele>215.8</ele>
        <time>2019-10-24T16:44:17Z</time>
        <extensions>
          <gpxtpx:TrackPointExtension xmlns:gpxtpx="http://www.garmin.com/xmlschemas/TrackPointExtension/v1">
            <gpxtpx:hr>131</gpxtpx:hr>
          </gpxtpx:TrackPointExtension>
        </extensions>
      </trkpt>
      <trkpt lat="45.22869" lon="5.87409">
        <ele>215.8</ele>
        <time>2019-10-24T16:44:26Z</time>
        <extensions>
          <gpxtpx:TrackPointExtension xmlns:gpxtpx="http://www.garmin.com/xmlschemas/TrackPointExtension/v1">
            <gpxtpx:hr>131</gpxtpx:hr>
          </gpxtpx:TrackPointExtension>
        </extensions>
      </trkpt>
      <trkpt lat="45.22855" lon="5.87389">
        <ele>215.6</ele>
        <time>2019-10-24T16:44:35Z</time>
        <extensions>
          <gpxtpx:TrackPointExtension xmlns:gpxtpx="http://www.garmin.com/xmlschemas/TrackPointExtension/v1">
            <gpxtpx:hr>131</gpxtpx:hr>
          </gpxtpx:TrackPointExtension>
        </extensions>
      </trkpt>
      <trkpt lat="45.22843" lon="5.8737">
        <ele>215.4</ele>
        <time>2019-10-24T16:44:43Z</time>
        <extensions>
          <gpxtpx:TrackPointExtension xmlns:gpxtpx="http://www.garmin.com/xmlschemas/TrackPointExtension/v1">
            <gpxtpx:hr>132</gpxtpx:hr>
          </gpxtpx:TrackPointExtension>
        </extensions>
      </trkpt>
      <trkpt lat="45.22829" lon="5.8735">
        <ele>215.8</ele>
        <time>2019-10-24T16:44:51Z</time>
        <extensions>
          <gpxtpx:TrackPointExtension xmlns:gpxtpx="http://www.garmin.com/xmlschemas/TrackPointExtension/v1">
            <gpxtpx:hr>131</gpxtpx:hr>
          </gpxtpx:TrackPointExtension>
        </extensions>
      </trkpt>
      <trkpt lat="45.22815" lon="5.87331">
        <ele>215.4</ele>
        <time>2019-10-24T16:44:59Z</time>
        <extensions>
          <gpxtpx:TrackPointExtension xmlns:gpxtpx="http://www.garmin.com/xmlschemas/TrackPointExtension/v1">
            <gpxtpx:hr>131</gpxtpx:hr>
          </gpxtpx:TrackPointExtension>
        </extensions>
      </trkpt>
      <trkpt lat="45.22812" lon="5.87326">
        <ele>215.6</ele>
        <time>2019-10-24T16:45:06Z</time>
        <extensions>
          <gpxtpx:TrackPointExtension xmlns:gpxtpx="http://www.garmin.com/xmlschemas/TrackPointExtension/v1">
            <gpxtpx:hr>131</gpxtpx:hr>
          </gpxtpx:TrackPointExtension>
        </extensions>
      </trkpt>
      <trkpt lat="45.22797" lon="5.87311">
        <ele>215.4</ele>
        <time>2019-10-24T16:45:10Z</time>
        <extensions>
          <gpxtpx:TrackPointExtension xmlns:gpxtpx="http://www.garmin.com/xmlschemas/TrackPointExtension/v1">
            <gpxtpx:hr>130</gpxtpx:hr>
          </gpxtpx:TrackPointExtension>
        </extensions>
      </trkpt>
      <trkpt lat="45.22788" lon="5.87307">
        <ele>215.4</ele>
        <time>2019-10-24T16:45:18Z</time>
        <extensions>
          <gpxtpx:TrackPointExtension xmlns:gpxtpx="http://www.garmin.com/xmlschemas/TrackPointExtension/v1">
            <gpxtpx:hr>127</gpxtpx:hr>
          </gpxtpx:TrackPointExtension>
        </extensions>
      </trkpt>
      <trkpt lat="45.22781" lon="5.87311">
        <ele>215.2</ele>
        <time>2019-10-24T16:45:24Z</time>
        <extensions>
          <gpxtpx:TrackPointExtension xmlns:gpxtpx="http://www.garmin.com/xmlschemas/TrackPointExtension/v1">
            <gpxtpx:hr>123</gpxtpx:hr>
          </gpxtpx:TrackPointExtension>
        </extensions>
      </trkpt>
      <trkpt lat="45.22764" lon="5.8732">
        <ele>215.6</ele>
        <time>2019-10-24T16:45:33Z</time>
        <extensions>
          <gpxtpx:TrackPointExtension xmlns:gpxtpx="http://www.garmin.com/xmlschemas/TrackPointExtension/v1">
            <gpxtpx:hr>121</gpxtpx:hr>
          </gpxtpx:TrackPointExtension>
        </extensions>
      </trkpt>
      <trkpt lat="45.22746" lon="5.87329">
        <ele>215.6</ele>
        <time>2019-10-24T16:45:41Z</time>
        <extensions>
          <gpxtpx:TrackPointExtension xmlns:gpxtpx="http://www.garmin.com/xmlschemas/TrackPointExtension/v1">
            <gpxtpx:hr>121</gpxtpx:hr>
          </gpxtpx:TrackPointExtension>
        </extensions>
      </trkpt>
      <trkpt lat="45.22731" lon="5.8734">
        <ele>215.4</ele>
        <time>2019-10-24T16:45:50Z</time>
        <extensions>
          <gpxtpx:TrackPointExtension xmlns:gpxtpx="http://www.garmin.com/xmlschemas/TrackPointExtension/v1">
            <gpxtpx:hr>121</gpxtpx:hr>
          </gpxtpx:TrackPointExtension>
        </extensions>
      </trkpt>
      <trkpt lat="45.22682" lon="5.87331">
        <ele>220.2</ele>
        <time>2019-10-24T16:45:59Z</time>
      </trkpt>
      <trkpt lat="45.22662" lon="5.87303">
        <ele>219.7</ele>
        <time>2019-10-24T16:46:08Z</time>
      </trkpt>
      <trkpt lat="45.22638" lon="5.87305">
        <ele>219.8</ele>
        <time>2019-10-24T16:46:15Z</time>
      </trkpt>
      <trkpt lat="45.22618" lon="5.87311">
        <ele>219.8</ele>
        <time>2019-10-24T16:46:23Z</time>
      </trkpt>
      <trkpt lat="45.22534" lon="5.87277">
        <ele>220.9</ele>
        <time>2019-10-24T16:46:31Z</time>
      </trkpt>
      <trkpt lat="45.22512" lon="5.87249">
        <ele>221.9</ele>
        <time>2019-10-24T16:46:40Z</time>
      </trkpt>
      <trkpt lat="45.22508" lon="5.87254">
        <ele>221.6</ele>
        <time>2019-10-24T16:46:48Z</time>
        <extensions>
          <gpxtpx:TrackPointExtension xmlns:gpxtpx="http://www.garmin.com/xmlschemas/TrackPointExtension/v1">
            <gpxtpx:hr>121</gpxtpx:hr>
          </gpxtpx:TrackPointExtension>
        </extensions>
      </trkpt>
      <trkpt lat="45.22501" lon="5.87231">
        <ele>221.6</ele>
        <time>2019-10-24T16:46:57Z</time>
        <extensions>
          <gpxtpx:TrackPointExtension xmlns:gpxtpx="http://www.garmin.com/xmlschemas/TrackPointExtension/v1">
            <gpxtpx:hr>122</gpxtpx:hr>
          </gpxtpx:TrackPointExtension>
        </extensions>
      </trkpt>
      <trkpt lat="45.22485" lon="5.87219">
        <ele>221.6</ele>
        <time>2019-10-24T16:47:05Z</time>
        <extensions>
          <gpxtpx:TrackPointExtension xmlns:gpxtpx="http://www.garmin.com/xmlschemas/TrackPointExtension/v1">
            <gpxtpx:hr>121</gpxtpx:hr>
          </gpxtpx:TrackPointExtension>
        </extensions>
      </trkpt>
      <trkpt lat="45.22471" lon="5.87203">
        <ele>221.6</ele>
        <time>2019-10-24T16:47:13Z</time>
        <extensions>
          <gpxtpx:TrackPointExtension xmlns:gpxtpx="http://www.garmin.com/xmlschemas/TrackPointExtension/v1">
            <gpxtpx:hr>123</gpxtpx:hr>
          </gpxtpx:TrackPointExtension>
        </extensions>
      </trkpt>
      <trkpt lat="45.22455" lon="5.87187">
        <ele>221.4</ele>
        <time>2019-10-24T16:47:22Z</time>
        <extensions>
          <gpxtpx:TrackPointExtension xmlns:gpxtpx="http://www.garmin.com/xmlschemas/TrackPointExtension/v1">
            <gpxtpx:hr>124</gpxtpx:hr>
          </gpxtpx:TrackPointExtension>
        </extensions>
      </trkpt>
      <trkpt lat="45.22439" lon="5.87171">
        <ele>221.6</ele>
        <time>2019-10-24T16:47:30Z</time>
        <extensions>
          <gpxtpx:TrackPointExtension xmlns:gpxtpx="http://www.garmin.com/xmlschemas/TrackPointExtension/v1">
            <gpxtpx:hr>125</gpxtpx:hr>
          </gpxtpx:TrackPointExtension>
        </extensions>
      </trkpt>
      <trkpt lat="45.22424" lon="5.87154">
        <ele>221.4</ele>
        <time>2019-10-24T16:47:38Z</time>
        <extensions>
          <gpxtpx:TrackPointExtension xmlns:gpxtpx="http://www.garmin.com/xmlschemas/TrackPointExtension/v1">
            <gpxtpx:hr>124</gpxtpx:hr>
          </gpxtpx:TrackPointExtension>
        </extensions>
      </trkpt>
      <trkpt lat="45.22426" lon="5.87128">
        <ele>221</ele>
        <time>2019-10-24T16:47:46Z</time>
        <extensions>
          <gpxtpx:TrackPointExtension xmlns:gpxtpx="http://www.garmin.com/xmlschemas/TrackPointExtension/v1">
            <gpxtpx:hr>123</gpxtpx:hr>
          </gpxtpx:TrackPointExtension>
        </extensions>
      </trkpt>
      <trkpt lat="45.22434" lon="5.87103">
        <ele>220.8</ele>
        <time>2019-10-24T16:47:54Z</time>
        <extensions>
          <gpxtpx:TrackPointExtension xmlns:gpxtpx="http://www.garmin.com/xmlschemas/TrackPointExtension/v1">
            <gpxtpx:hr>123</gpxtpx:hr>
          </gpxtpx:TrackPointExtension>
        </extensions>
      </trkpt>
      <trkpt lat="45.22441" lon="5.87079">
        <ele>220.8</ele>
        <time>2019-10-24T16:48:02Z</time>
        <extensions>
          <gpxtpx:TrackPointExtension xmlns:gpxtpx="http://www.garmin.com/xmlschemas/TrackPointExtension/v1">
            <gpxtpx:hr>121</gpxtpx:hr>
          </gpxtpx:TrackPointExtension>
        </extensions>
      </trkpt>
      <trkpt lat="45.22452" lon="5.87061">
        <ele>220.8</ele>
        <time>2019-10-24T16:48:10Z</time>
        <extensions>
          <gpxtpx:TrackPointExtension xmlns:gpxtpx="http://www.garmin.com/xmlschemas/TrackPointExtension/v1">
            <gpxtpx:hr>118</gpxtpx:hr>
          </gpxtpx:TrackPointExtension>
        </extensions>
      </trkpt>
      <trkpt lat="45.2245" lon="5.8705">
        <ele>220.8</ele>
        <time>2019-10-24T16:48:18Z</time>
        <extensions>
          <gpxtpx:TrackPointExtension xmlns:gpxtpx="http://www.garmin.com/xmlschemas/TrackPointExtension/v1">
            <gpxtpx:hr>117</gpxtpx:hr>
          </gpxtpx:TrackPointExtension>
        </extensions>
      </trkpt>
      <trkpt lat="45.22438" lon="5.8703">
        <ele>221</ele>
        <time>2019-10-24T16:48:26Z</time>
        <extensions>
          <gpxtpx:TrackPointExtension xmlns:gpxtpx="http://www.garmin.com/xmlschemas/TrackPointExtension/v1">
            <gpxtpx:hr>118</gpxtpx:hr>
          </gpxtpx:TrackPointExtension>
        </extensions>
      </trkpt>
      <trkpt lat="45.22429" lon="5.87016">
        <ele>221</ele>
        <time>2019-10-24T16:48:35Z</time>
        <extensions>
          <gpxtpx:TrackPointExtension xmlns:gpxtpx="http://www.garmin.com/xmlschemas/TrackPointExtension/v1">
            <gpxtpx:hr>121</gpxtpx:hr>
          </gpxtpx:TrackPointExtension>
        </extensions>
      </trkpt>
      <trkpt lat="45.22419" lon="5.86994">
        <ele>221</ele>
        <time>2019-10-24T16:48:37Z</time>
        <extensions>
          <gpxtpx:TrackPointExtension xmlns:gpxtpx="http://www.garmin.com/xmlschemas/TrackPointExtension/v1">
            <gpxtpx:hr>121</gpxtpx:hr>
          </gpxtpx:TrackPointExtension>
        </extensions>
      </trkpt>
      <trkpt lat="45.22411" lon="5.86969">
        <ele>221.2</ele>
        <time>2019-10-24T16:48:45Z</time>
        <extensions>
          <gpxtpx:TrackPointExtension xmlns:gpxtpx="http://www.garmin.com/xmlschemas/TrackPointExtension/v1">
            <gpxtpx:hr>122</gpxtpx:hr>
          </gpxtpx:TrackPointExtension>
        </extensions>
      </trkpt>
      <trkpt lat="45.22404" lon="5.86945">
        <ele>221</ele>
        <time>2019-10-24T16:48:53Z</time>
        <extensions>
          <gpxtpx:TrackPointExtension xmlns:gpxtpx="http://www.garmin.com/xmlschemas/TrackPointExtension/v1">
            <gpxtpx:hr>121</gpxtpx:hr>
          </gpxtpx:TrackPointExtension>
        </extensions>
      </trkpt>
      <trkpt lat="45.22393" lon="5.86922">
        <ele>220.6</ele>
        <time>2019-10-24T16:49:01Z</time>
        <extensions>
          <gpxtpx:TrackPointExtension xmlns:gpxtpx="http://www.garmin.com/xmlschemas/TrackPointExtension/v1">
            <gpxtpx:hr>121</gpxtpx:hr>
          </gpxtpx:TrackPointExtension>
        </extensions>
      </trkpt>
      <trkpt lat="45.22382" lon="5.86899">
        <ele>220.6</ele>
        <time>2019-10-24T16:49:09Z</time>
        <extensions>
          <gpxtpx:TrackPointExtension xmlns:gpxtpx="http://www.garmin.com/xmlschemas/TrackPointExtension/v1">
            <gpxtpx:hr>123</gpxtpx:hr>
          </gpxtpx:TrackPointExtension>
        </extensions>
      </trkpt>
      <trkpt lat="45.22373" lon="5.86881">
        <ele>220.6</ele>
        <time>2019-10-24T16:49:17Z</time>
        <extensions>
          <gpxtpx:TrackPointExtension xmlns:gpxtpx="http://www.garmin.com/xmlschemas/TrackPointExtension/v1">
            <gpxtpx:hr>126</gpxtpx:hr>
          </gpxtpx:TrackPointExtension>
        </extensions>
      </trkpt>
      <trkpt lat="45.22362" lon="5.8686">
        <ele>220.4</ele>
        <time>2019-10-24T16:49:26Z</time>
        <extensions>
          <gpxtpx:TrackPointExtension xmlns:gpxtpx="http://www.garmin.com/xmlschemas/TrackPointExtension/v1">
            <gpxtpx:hr>124</gpxtpx:hr>
          </gpxtpx:TrackPointExtension>
        </extensions>
      </trkpt>
      <trkpt lat="45.22353" lon="5.86838">
        <ele>220.4</ele>
        <time>2019-10-24T16:49:34Z</time>
        <extensions>
          <gpxtpx:TrackPointExtension xmlns:gpxtpx="http://www.garmin.com/xmlschemas/TrackPointExtension/v1">
            <gpxtpx:hr>123</gpxtpx:hr>
          </gpxtpx:TrackPointExtension>
        </extensions>
      </trkpt>
      <trkpt lat="45.22343" lon="5.86815">
        <ele>220.6</ele>
        <time>2019-10-24T16:49:36Z</time>
        <extensions>
          <gpxtpx:TrackPointExtension xmlns:gpxtpx="http://www.garmin.com/xmlschemas/TrackPointExtension/v1">
            <gpxtpx:hr>123</gpxtpx:hr>
          </gpxtpx:TrackPointExtension>
        </extensions>
      </trkpt>
      <trkpt lat="45.22337" lon="5.8679">
        <ele>220.8</ele>
        <time>2019-10-24T16:49:45Z</time>
        <extensions>
          <gpxtpx:TrackPointExtension xmlns:gpxtpx="http://www.garmin.com/xmlschemas/TrackPointExtension/v1">
            <gpxtpx:hr>123</gpxtpx:hr>
          </gpxtpx:TrackPointExtension>
        </extensions>
      </trkpt>
      <trkpt lat="45.22328" lon="5.86765">
        <ele>220.6</ele>
        <time>2019-10-24T16:49:53Z</time>
        <extensions>
          <gpxtpx:TrackPointExtension xmlns:gpxtpx="http://www.garmin.com/xmlschemas/TrackPointExtension/v1">
            <gpxtpx:hr>124</gpxtpx:hr>
          </gpxtpx:TrackPointExtension>
        </extensions>
      </trkpt>
      <trkpt lat="45.22321" lon="5.8674">
        <ele>220.6</ele>
        <time>2019-10-24T16:50:01Z</time>
        <extensions>
          <gpxtpx:TrackPointExtension xmlns:gpxtpx="http://www.garmin.com/xmlschemas/TrackPointExtension/v1">
            <gpxtpx:hr>124</gpxtpx:hr>
          </gpxtpx:TrackPointExtension>
        </extensions>
      </trkpt>
      <trkpt lat="45.22313" lon="5.86717">
        <ele>220.4</ele>
        <time>2019-10-24T16:50:09Z</time>
        <extensions>
          <gpxtpx:TrackPointExtension xmlns:gpxtpx="http://www.garmin.com/xmlschemas/TrackPointExtension/v1">
            <gpxtpx:hr>124</gpxtpx:hr>
          </gpxtpx:TrackPointExtension>
        </extensions>
      </trkpt>
      <trkpt lat="45.22305" lon="5.86691">
        <ele>220.6</ele>
        <time>2019-10-24T16:50:18Z</time>
        <extensions>
          <gpxtpx:TrackPointExtension xmlns:gpxtpx="http://www.garmin.com/xmlschemas/TrackPointExtension/v1">
            <gpxtpx:hr>125</gpxtpx:hr>
          </gpxtpx:TrackPointExtension>
        </extensions>
      </trkpt>
      <trkpt lat="45.22298" lon="5.86667">
        <ele>220.6</ele>
        <time>2019-10-24T16:50:26Z</time>
        <extensions>
          <gpxtpx:TrackPointExtension xmlns:gpxtpx="http://www.garmin.com/xmlschemas/TrackPointExtension/v1">
            <gpxtpx:hr>124</gpxtpx:hr>
          </gpxtpx:TrackPointExtension>
        </extensions>
      </trkpt>
      <trkpt lat="45.223" lon="5.86641">
        <ele>220.4</ele>
        <time>2019-10-24T16:50:34Z</time>
        <extensions>
          <gpxtpx:TrackPointExtension xmlns:gpxtpx="http://www.garmin.com/xmlschemas/TrackPointExtension/v1">
            <gpxtpx:hr>124</gpxtpx:hr>
          </gpxtpx:TrackPointExtension>
        </extensions>
      </trkpt>
      <trkpt lat="45.22312" lon="5.86621">
        <ele>220.4</ele>
        <time>2019-10-24T16:50:36Z</time>
        <extensions>
          <gpxtpx:TrackPointExtension xmlns:gpxtpx="http://www.garmin.com/xmlschemas/TrackPointExtension/v1">
            <gpxtpx:hr>125</gpxtpx:hr>
          </gpxtpx:TrackPointExtension>
        </extensions>
      </trkpt>
      <trkpt lat="45.22325" lon="5.86599">
        <ele>220.2</ele>
        <time>2019-10-24T16:50:44Z</time>
        <extensions>
          <gpxtpx:TrackPointExtension xmlns:gpxtpx="http://www.garmin.com/xmlschemas/TrackPointExtension/v1">
            <gpxtpx:hr>127</gpxtpx:hr>
          </gpxtpx:TrackPointExtension>
        </extensions>
      </trkpt>
      <trkpt lat="45.22333" lon="5.86576">
        <ele>220.4</ele>
        <time>2019-10-24T16:50:53Z</time>
        <extensions>
          <gpxtpx:TrackPointExtension xmlns:gpxtpx="http://www.garmin.com/xmlschemas/TrackPointExtension/v1">
            <gpxtpx:hr>125</gpxtpx:hr>
          </gpxtpx:TrackPointExtension>
        </extensions>
      </trkpt>
      <trkpt lat="45.22335" lon="5.86548">
        <ele>220.4</ele>
        <time>2019-10-24T16:51:01Z</time>
        <extensions>
          <gpxtpx:TrackPointExtension xmlns:gpxtpx="http://www.garmin.com/xmlschemas/TrackPointExtension/v1">
            <gpxtpx:hr>125</gpxtpx:hr>
          </gpxtpx:TrackPointExtension>
        </extensions>
      </trkpt>
      <trkpt lat="45.22328" lon="5.86524">
        <ele>220.4</ele>
        <time>2019-10-24T16:51:09Z</time>
        <extensions>
          <gpxtpx:TrackPointExtension xmlns:gpxtpx="http://www.garmin.com/xmlschemas/TrackPointExtension/v1">
            <gpxtpx:hr>124</gpxtpx:hr>
          </gpxtpx:TrackPointExtension>
        </extensions>
      </trkpt>
      <trkpt lat="45.22316" lon="5.86505">
        <ele>220.2</ele>
        <time>2019-10-24T16:51:17Z</time>
        <extensions>
          <gpxtpx:TrackPointExtension xmlns:gpxtpx="http://www.garmin.com/xmlschemas/TrackPointExtension/v1">
            <gpxtpx:hr>124</gpxtpx:hr>
          </gpxtpx:TrackPointExtension>
        </extensions>
      </trkpt>
      <trkpt lat="45.223" lon="5.86486">
        <ele>220</ele>
        <time>2019-10-24T16:51:25Z</time>
        <extensions>
          <gpxtpx:TrackPointExtension xmlns:gpxtpx="http://www.garmin.com/xmlschemas/TrackPointExtension/v1">
            <gpxtpx:hr>125</gpxtpx:hr>
          </gpxtpx:TrackPointExtension>
        </extensions>
      </trkpt>
      <trkpt lat="45.22296" lon="5.86483">
        <ele>220</ele>
        <time>2019-10-24T16:51:33Z</time>
        <extensions>
          <gpxtpx:TrackPointExtension xmlns:gpxtpx="http://www.garmin.com/xmlschemas/TrackPointExtension/v1">
            <gpxtpx:hr>126</gpxtpx:hr>
          </gpxtpx:TrackPointExtension>
        </extensions>
      </trkpt>
      <trkpt lat="45.22279" lon="5.86467">
        <ele>219.8</ele>
        <time>2019-10-24T16:51:41Z</time>
        <extensions>
          <gpxtpx:TrackPointExtension xmlns:gpxtpx="http://www.garmin.com/xmlschemas/TrackPointExtension/v1">
            <gpxtpx:hr>127</gpxtpx:hr>
          </gpxtpx:TrackPointExtension>
        </extensions>
      </trkpt>
      <trkpt lat="45.22264" lon="5.86452">
        <ele>219.8</ele>
        <time>2019-10-24T16:51:49Z</time>
        <extensions>
          <gpxtpx:TrackPointExtension xmlns:gpxtpx="http://www.garmin.com/xmlschemas/TrackPointExtension/v1">
            <gpxtpx:hr>126</gpxtpx:hr>
          </gpxtpx:TrackPointExtension>
        </extensions>
      </trkpt>
      <trkpt lat="45.22249" lon="5.86436">
        <ele>219.8</ele>
        <time>2019-10-24T16:51:57Z</time>
        <extensions>
          <gpxtpx:TrackPointExtension xmlns:gpxtpx="http://www.garmin.com/xmlschemas/TrackPointExtension/v1">
            <gpxtpx:hr>127</gpxtpx:hr>
          </gpxtpx:TrackPointExtension>
        </extensions>
      </trkpt>
      <trkpt lat="45.22237" lon="5.86414">
        <ele>220</ele>
        <time>2019-10-24T16:52:05Z</time>
        <extensions>
          <gpxtpx:TrackPointExtension xmlns:gpxtpx="http://www.garmin.com/xmlschemas/TrackPointExtension/v1">
            <gpxtpx:hr>128</gpxtpx:hr>
          </gpxtpx:TrackPointExtension>
        </extensions>
      </trkpt>
      <trkpt lat="45.22226" lon="5.86391">
        <ele>219.8</ele>
        <time>2019-10-24T16:52:14Z</time>
        <extensions>
          <gpxtpx:TrackPointExtension xmlns:gpxtpx="http://www.garmin.com/xmlschemas/TrackPointExtension/v1">
            <gpxtpx:hr>128</gpxtpx:hr>
          </gpxtpx:TrackPointExtension>
        </extensions>
      </trkpt>
      <trkpt lat="45.22212" lon="5.86371">
        <ele>219.8</ele>
        <time>2019-10-24T16:52:22Z</time>
        <extensions>
          <gpxtpx:TrackPointExtension xmlns:gpxtpx="http://www.garmin.com/xmlschemas/TrackPointExtension/v1">
            <gpxtpx:hr>128</gpxtpx:hr>
          </gpxtpx:TrackPointExtension>
        </extensions>
      </trkpt>
      <trkpt lat="45.22198" lon="5.86352">
        <ele>219.8</ele>
        <time>2019-10-24T16:52:29Z</time>
        <extensions>
          <gpxtpx:TrackPointExtension xmlns:gpxtpx="http://www.garmin.com/xmlschemas/TrackPointExtension/v1">
            <gpxtpx:hr>126</gpxtpx:hr>
          </gpxtpx:TrackPointExtension>
        </extensions>
      </trkpt>
      <trkpt lat="45.22194" lon="5.86347">
        <ele>219.8</ele>
        <time>2019-10-24T16:52:37Z</time>
        <extensions>
          <gpxtpx:TrackPointExtension xmlns:gpxtpx="http://www.garmin.com/xmlschemas/TrackPointExtension/v1">
            <gpxtpx:hr>126</gpxtpx:hr>
          </gpxtpx:TrackPointExtension>
        </extensions>
      </trkpt>
      <trkpt lat="45.22181" lon="5.86327">
        <ele>219.6</ele>
        <time>2019-10-24T16:52:39Z</time>
        <extensions>
          <gpxtpx:TrackPointExtension xmlns:gpxtpx="http://www.garmin.com/xmlschemas/TrackPointExtension/v1">
            <gpxtpx:hr>125</gpxtpx:hr>
          </gpxtpx:TrackPointExtension>
        </extensions>
      </trkpt>
      <trkpt lat="45.22167" lon="5.86309">
        <ele>219.6</ele>
        <time>2019-10-24T16:52:47Z</time>
        <extensions>
          <gpxtpx:TrackPointExtension xmlns:gpxtpx="http://www.garmin.com/xmlschemas/TrackPointExtension/v1">
            <gpxtpx:hr>126</gpxtpx:hr>
          </gpxtpx:TrackPointExtension>
        </extensions>
      </trkpt>
      <trkpt lat="45.22152" lon="5.86292">
        <ele>219.4</ele>
        <time>2019-10-24T16:52:55Z</time>
        <extensions>
          <gpxtpx:TrackPointExtension xmlns:gpxtpx="http://www.garmin.com/xmlschemas/TrackPointExtension/v1">
            <gpxtpx:hr>125</gpxtpx:hr>
          </gpxtpx:TrackPointExtension>
        </extensions>
      </trkpt>
      <trkpt lat="45.22139" lon="5.86272">
        <ele>219.2</ele>
        <time>2019-10-24T16:53:03Z</time>
        <extensions>
          <gpxtpx:TrackPointExtension xmlns:gpxtpx="http://www.garmin.com/xmlschemas/TrackPointExtension/v1">
            <gpxtpx:hr>126</gpxtpx:hr>
          </gpxtpx:TrackPointExtension>
        </extensions>
      </trkpt>
      <trkpt lat="45.22122" lon="5.86259">
        <ele>219.2</ele>
        <time>2019-10-24T16:53:11Z</time>
        <extensions>
          <gpxtpx:TrackPointExtension xmlns:gpxtpx="http://www.garmin.com/xmlschemas/TrackPointExtension/v1">
            <gpxtpx:hr>126</gpxtpx:hr>
          </gpxtpx:TrackPointExtension>
        </extensions>
      </trkpt>
      <trkpt lat="45.22104" lon="5.86255">
        <ele>219.2</ele>
        <time>2019-10-24T16:53:19Z</time>
        <extensions>
          <gpxtpx:TrackPointExtension xmlns:gpxtpx="http://www.garmin.com/xmlschemas/TrackPointExtension/v1">
            <gpxtpx:hr>126</gpxtpx:hr>
          </gpxtpx:TrackPointExtension>
        </extensions>
      </trkpt>
      <trkpt lat="45.22085" lon="5.86251">
        <ele>219</ele>
        <time>2019-10-24T16:53:21Z</time>
        <extensions>
          <gpxtpx:TrackPointExtension xmlns:gpxtpx="http://www.garmin.com/xmlschemas/TrackPointExtension/v1">
            <gpxtpx:hr>126</gpxtpx:hr>
          </gpxtpx:TrackPointExtension>
        </extensions>
      </trkpt>
      <trkpt lat="45.2208" lon="5.86249">
        <ele>218.8</ele>
        <time>2019-10-24T16:53:29Z</time>
        <extensions>
          <gpxtpx:TrackPointExtension xmlns:gpxtpx="http://www.garmin.com/xmlschemas/TrackPointExtension/v1">
            <gpxtpx:hr>126</gpxtpx:hr>
          </gpxtpx:TrackPointExtension>
        </extensions>
      </trkpt>
      <trkpt lat="45.22062" lon="5.86243">
        <ele>219</ele>
        <time>2019-10-24T16:53:37Z</time>
        <extensions>
          <gpxtpx:TrackPointExtension xmlns:gpxtpx="http://www.garmin.com/xmlschemas/TrackPointExtension/v1">
            <gpxtpx:hr>124</gpxtpx:hr>
          </gpxtpx:TrackPointExtension>
        </extensions>
      </trkpt>
      <trkpt lat="45.22043" lon="5.86236">
        <ele>218.8</ele>
        <time>2019-10-24T16:53:45Z</time>
        <extensions>
          <gpxtpx:TrackPointExtension xmlns:gpxtpx="http://www.garmin.com/xmlschemas/TrackPointExtension/v1">
            <gpxtpx:hr>124</gpxtpx:hr>
          </gpxtpx:TrackPointExtension>
        </extensions>
      </trkpt>
      <trkpt lat="45.22024" lon="5.86229">
        <ele>219.2</ele>
        <time>2019-10-24T16:53:51Z</time>
        <extensions>
          <gpxtpx:TrackPointExtension xmlns:gpxtpx="http://www.garmin.com/xmlschemas/TrackPointExtension/v1">
            <gpxtpx:hr>125</gpxtpx:hr>
          </gpxtpx:TrackPointExtension>
        </extensions>
      </trkpt>
      <trkpt lat="45.22007" lon="5.86237">
        <ele>219.4</ele>
        <time>2019-10-24T16:53:58Z</time>
        <extensions>
          <gpxtpx:TrackPointExtension xmlns:gpxtpx="http://www.garmin.com/xmlschemas/TrackPointExtension/v1">
            <gpxtpx:hr>127</gpxtpx:hr>
          </gpxtpx:TrackPointExtension>
        </extensions>
      </trkpt>
      <trkpt lat="45.21992" lon="5.8625">
        <ele>219.2</ele>
        <time>2019-10-24T16:54:06Z</time>
        <extensions>
          <gpxtpx:TrackPointExtension xmlns:gpxtpx="http://www.garmin.com/xmlschemas/TrackPointExtension/v1">
            <gpxtpx:hr>128</gpxtpx:hr>
          </gpxtpx:TrackPointExtension>
        </extensions>
      </trkpt>
      <trkpt lat="45.21976" lon="5.86265">
        <ele>219.4</ele>
        <time>2019-10-24T16:54:13Z</time>
        <extensions>
          <gpxtpx:TrackPointExtension xmlns:gpxtpx="http://www.garmin.com/xmlschemas/TrackPointExtension/v1">
            <gpxtpx:hr>128</gpxtpx:hr>
          </gpxtpx:TrackPointExtension>
        </extensions>
      </trkpt>
      <trkpt lat="45.21958" lon="5.86279">
        <ele>219.2</ele>
        <time>2019-10-24T16:54:20Z</time>
        <extensions>
          <gpxtpx:TrackPointExtension xmlns:gpxtpx="http://www.garmin.com/xmlschemas/TrackPointExtension/v1">
            <gpxtpx:hr>128</gpxtpx:hr>
          </gpxtpx:TrackPointExtension>
        </extensions>
      </trkpt>
      <trkpt lat="45.2194" lon="5.86286">
        <ele>219.2</ele>
        <time>2019-10-24T16:54:21Z</time>
        <extensions>
          <gpxtpx:TrackPointExtension xmlns:gpxtpx="http://www.garmin.com/xmlschemas/TrackPointExtension/v1">
            <gpxtpx:hr>128</gpxtpx:hr>
          </gpxtpx:TrackPointExtension>
        </extensions>
      </trkpt>
      <trkpt lat="45.21921" lon="5.86294">
        <ele>219.2</ele>
        <time>2019-10-24T16:54:29Z</time>
        <extensions>
          <gpxtpx:TrackPointExtension xmlns:gpxtpx="http://www.garmin.com/xmlschemas/TrackPointExtension/v1">
            <gpxtpx:hr>127</gpxtpx:hr>
          </gpxtpx:TrackPointExtension>
        </extensions>
      </trkpt>
      <trkpt lat="45.21904" lon="5.86303">
        <ele>219.4</ele>
        <time>2019-10-24T16:54:37Z</time>
        <extensions>
          <gpxtpx:TrackPointExtension xmlns:gpxtpx="http://www.garmin.com/xmlschemas/TrackPointExtension/v1">
            <gpxtpx:hr>127</gpxtpx:hr>
          </gpxtpx:TrackPointExtension>
        </extensions>
      </trkpt>
      <trkpt lat="45.21887" lon="5.86312">
        <ele>219.4</ele>
        <time>2019-10-24T16:54:41Z</time>
        <extensions>
          <gpxtpx:TrackPointExtension xmlns:gpxtpx="http://www.garmin.com/xmlschemas/TrackPointExtension/v1">
            <gpxtpx:hr>127</gpxtpx:hr>
          </gpxtpx:TrackPointExtension>
        </extensions>
      </trkpt>
      <trkpt lat="45.21869" lon="5.86315">
        <ele>219.4</ele>
        <time>2019-10-24T16:54:49Z</time>
        <extensions>
          <gpxtpx:TrackPointExtension xmlns:gpxtpx="http://www.garmin.com/xmlschemas/TrackPointExtension/v1">
            <gpxtpx:hr>127</gpxtpx:hr>
          </gpxtpx:TrackPointExtension>
        </extensions>
      </trkpt>
      <trkpt lat="45.21849" lon="5.86312">
        <ele>219.4</ele>
        <time>2019-10-24T16:54:56Z</time>
        <extensions>
          <gpxtpx:TrackPointExtension xmlns:gpxtpx="http://www.garmin.com/xmlschemas/TrackPointExtension/v1">
            <gpxtpx:hr>128</gpxtpx:hr>
          </gpxtpx:TrackPointExtension>
        </extensions>
      </trkpt>
      <trkpt lat="45.21833" lon="5.86298">
        <ele>219.4</ele>
        <time>2019-10-24T16:55:04Z</time>
        <extensions>
          <gpxtpx:TrackPointExtension xmlns:gpxtpx="http://www.garmin.com/xmlschemas/TrackPointExtension/v1">
            <gpxtpx:hr>128</gpxtpx:hr>
          </gpxtpx:TrackPointExtension>
        </extensions>
      </trkpt>
      <trkpt lat="45.21819" lon="5.86281">
        <ele>219.8</ele>
        <time>2019-10-24T16:55:12Z</time>
        <extensions>
          <gpxtpx:TrackPointExtension xmlns:gpxtpx="http://www.garmin.com/xmlschemas/TrackPointExtension/v1">
            <gpxtpx:hr>127</gpxtpx:hr>
          </gpxtpx:TrackPointExtension>
        </extensions>
      </trkpt>
      <trkpt lat="45.21815" lon="5.86276">
        <ele>220</ele>
        <time>2019-10-24T16:55:19Z</time>
        <extensions>
          <gpxtpx:TrackPointExtension xmlns:gpxtpx="http://www.garmin.com/xmlschemas/TrackPointExtension/v1">
            <gpxtpx:hr>128</gpxtpx:hr>
          </gpxtpx:TrackPointExtension>
        </extensions>
      </trkpt>
      <trkpt lat="45.218" lon="5.86259">
        <ele>220.2</ele>
        <time>2019-10-24T16:55:27Z</time>
        <extensions>
          <gpxtpx:TrackPointExtension xmlns:gpxtpx="http://www.garmin.com/xmlschemas/TrackPointExtension/v1">
            <gpxtpx:hr>129</gpxtpx:hr>
          </gpxtpx:TrackPointExtension>
        </extensions>
      </trkpt>
      <trkpt lat="45.21788" lon="5.86238">
        <ele>220.2</ele>
        <time>2019-10-24T16:55:35Z</time>
        <extensions>
          <gpxtpx:TrackPointExtension xmlns:gpxtpx="http://www.garmin.com/xmlschemas/TrackPointExtension/v1">
            <gpxtpx:hr>129</gpxtpx:hr>
          </gpxtpx:TrackPointExtension>
        </extensions>
      </trkpt>
      <trkpt lat="45.21776" lon="5.86216">
        <ele>220.4</ele>
        <extensions>
          <gpxtpx:TrackPointExtension xmlns:gpxtpx="http://www.garmin.com/xmlschemas/TrackPointExtension/v1">
            <gpxtpx:hr>129</gpxtpx:hr>
          </gpxtpx:TrackPointExtension>
        </extensions>
      </trkpt>
      <trkpt lat="45.21765" lon="5.86193">
        <ele>220.6</ele>
        <extensions>
          <gpxtpx:TrackPointExtension xmlns:gpxtpx="http://www.garmin.com/xmlschemas/TrackPointExtension/v1">
            <gpxtpx:hr>129</gpxtpx:hr>
          </gpxtpx:TrackPointExtension>
        </extensions>
      </trkpt>
      <trkpt lat="45.21756" lon="5.86169">
        <ele>220.8</ele>
        <extensions>
          <gpxtpx:TrackPointExtension xmlns:gpxtpx="http://www.garmin.com/xmlschemas/TrackPointExtension/v1">
            <gpxtpx:hr>130</gpxtpx:hr>
          </gpxtpx:TrackPointExtension>
        </extensions>
      </trkpt>
      <trkpt lat="45.21754" lon="5.86164">
        <ele>221</ele>
        <extensions>
          <gpxtpx:TrackPointExtension xmlns:gpxtpx="http://www.garmin.com/xmlschemas/TrackPointExtension/v1">
            <gpxtpx:hr>130</gpxtpx:hr>
          </gpxtpx:TrackPointExtension>
        </extensions>
      </trkpt>
      <trkpt lat="45.21748" lon="5.86137">
        <ele>222</ele>
        <extensions>
          <gpxtpx:TrackPointExtension xmlns:gpxtpx="http://www.garmin.com/xmlschemas/TrackPointExtension/v1">
            <gpxtpx:hr>131</gpxtpx:hr>
          </gpxtpx:TrackPointExtension>
        </extensions>
      </trkpt>
      <trkpt lat="45.21758" lon="5.86116">
        <ele>221.8</ele>
        <extensions>
          <gpxtpx:TrackPointExtension xmlns:gpxtpx="http://www.garmin.com/xmlschemas/TrackPointExtension/v1">
            <gpxtpx:hr>131</gpxtpx:hr>
          </gpxtpx:TrackPointExtension>
        </extensions>
      </trkpt>
      <trkpt lat="45.21775" lon="5.86107">
        <ele>221.4</ele>
        <extensions>
          <gpxtpx:TrackPointExtension xmlns:gpxtpx="http://www.garmin.com/xmlschemas/TrackPointExtension/v1">
            <gpxtpx:hr>129</gpxtpx:hr>
          </gpxtpx:TrackPointExtension>
        </extensions>
      </trkpt>
      <trkpt lat="45.2179" lon="5.86099">
        <ele>221.2</ele>
        <extensions>
          <gpxtpx:TrackPointExtension xmlns:gpxtpx="http://www.garmin.com/xmlschemas/TrackPointExtension/v1">
            <gpxtpx:hr>126</gpxtpx:hr>
          </gpxtpx:TrackPointExtension>
        </extensions>
      </trkpt>
      <trkpt lat="45.21806" lon="5.86088">
        <ele>221</ele>
        <extensions>
          <gpxtpx:TrackPointExtension xmlns:gpxtpx="http://www.garmin.com/xmlschemas/TrackPointExtension/v1">
            <gpxtpx:hr>127</gpxtpx:hr>
          </gpxtpx:TrackPointExtension>
        </extensions>
      </trkpt>
      <trkpt lat="45.21821" lon="5.86072">
        <ele>220.8</ele>
        <extensions>
          <gpxtpx:TrackPointExtension xmlns:gpxtpx="http://www.garmin.com/xmlschemas/TrackPointExtension/v1">
            <gpxtpx:hr>129</gpxtpx:hr>
          </gpxtpx:TrackPointExtension>
        </extensions>
      </trkpt>
      <trkpt lat="45.21834" lon="5.86053">
        <ele>220.4</ele>
        <extensions>
          <gpxtpx:TrackPointExtension xmlns:gpxtpx="http://www.garmin.com/xmlschemas/TrackPointExtension/v1">
            <gpxtpx:hr>130</gpxtpx:hr>
          </gpxtpx:TrackPointExtension>
        </extensions>
      </trkpt>
      <trkpt lat="45.21847" lon="5.86034">
        <ele>220.2</ele>
        <extensions>
          <gpxtpx:TrackPointExtension xmlns:gpxtpx="http://www.garmin.com/xmlschemas/TrackPointExtension/v1">
            <gpxtpx:hr>129</gpxtpx:hr>
          </gpxtpx:TrackPointExtension>
        </extensions>
      </trkpt>
      <trkpt lat="45.21848" lon="5.86031">
        <ele>220</ele>
        <extensions>
          <gpxtpx:TrackPointExtension xmlns:gpxtpx="http://www.garmin.com/xmlschemas/TrackPointExtension/v1">
            <gpxtpx:hr>129</gpxtpx:hr>
          </gpxtpx:TrackPointExtension>
        </extensions>
      </trkpt>
      <trkpt lat="45.21864" lon="5.86012">
        <ele>219.8</ele>
        <extensions>
          <gpxtpx:TrackPointExtension xmlns:gpxtpx="http://www.garmin.com/xmlschemas/TrackPointExtension/v1">
            <gpxtpx:hr>129</gpxtpx:hr>
          </gpxtpx:TrackPointExtension>
        </extensions>
      </trkpt>
      <trkpt lat="45.21883" lon="5.86017">
        <ele>219.2</ele>
        <extensions>
          <gpxtpx:TrackPointExtension xmlns:gpxtpx="http://www.garmin.com/xmlschemas/TrackPointExtension/v1">
            <gpxtpx:hr>128</gpxtpx:hr>
          </gpxtpx:TrackPointExtension>
        </extensions>
      </trkpt>
      <trkpt lat="45.21891" lon="5.86022">
        <ele>219</ele>
        <extensions>
          <gpxtpx:TrackPointExtension xmlns:gpxtpx="http://www.garmin.com/xmlschemas/TrackPointExtension/v1">
            <gpxtpx:hr>128</gpxtpx:hr>
          </gpxtpx:TrackPointExtension>
        </extensions>
      </trkpt>
      <trkpt lat="45.21909" lon="5.86035">
        <ele>218.8</ele>
        <extensions>
          <gpxtpx:TrackPointExtension xmlns:gpxtpx="http://www.garmin.com/xmlschemas/TrackPointExtension/v1">
            <gpxtpx:hr>128</gpxtpx:hr>
          </gpxtpx:TrackPointExtension>
        </extensions>
      </trkpt>
      <trkpt lat="45.21927" lon="5.8604">
        <ele>218.6</ele>
        <extensions>
          <gpxtpx:TrackPointExtension xmlns:gpxtpx="http://www.garmin.com/xmlschemas/TrackPointExtension/v1">
            <gpxtpx:hr>127</gpxtpx:hr>
          </gpxtpx:TrackPointExtension>
        </extensions>
      </trkpt>
      <trkpt lat="45.21946" lon="5.86045">
        <ele>218.6</ele>
        <extensions>
          <gpxtpx:TrackPointExtension xmlns:gpxtpx="http://www.garmin.com/xmlschemas/TrackPointExtension/v1">
            <gpxtpx:hr>126</gpxtpx:hr>
          </gpxtpx:TrackPointExtension>
        </extensions>
      </trkpt>
      <trkpt lat="45.21965" lon="5.86051">
        <ele>218.4</ele>
        <extensions>
          <gpxtpx:TrackPointExtension xmlns:gpxtpx="http://www.garmin.com/xmlschemas/TrackPointExtension/v1">
            <gpxtpx:hr>128</gpxtpx:hr>
          </gpxtpx:TrackPointExtension>
        </extensions>
      </trkpt>
      <trkpt lat="45.21981" lon="5.86063">
        <ele>218.2</ele>
        <extensions>
          <gpxtpx:TrackPointExtension xmlns:gpxtpx="http://www.garmin.com/xmlschemas/TrackPointExtension/v1">
            <gpxtpx:hr>128</gpxtpx:hr>
          </gpxtpx:TrackPointExtension>
        </extensions>
      </trkpt>
      <trkpt lat="45.21998" lon="5.86078">
        <ele>218.2</ele>
        <extensions>
          <gpxtpx:TrackPointExtension xmlns:gpxtpx="http://www.garmin.com/xmlschemas/TrackPointExtension/v1">
            <gpxtpx:hr>129</gpxtpx:hr>
          </gpxtpx:TrackPointExtension>
        </extensions>
      </trkpt>
      <trkpt lat="45.22016" lon="5.86077">
        <ele>218.2</ele>
        <extensions>
          <gpxtpx:TrackPointExtension xmlns:gpxtpx="http://www.garmin.com/xmlschemas/TrackPointExtension/v1">
            <gpxtpx:hr>129</gpxtpx:hr>
          </gpxtpx:TrackPointExtension>
        </extensions>
      </trkpt>
      <trkpt lat="45.22062" lon="5.86164">
        <ele>220.3</ele>
      </trkpt>
    </trkseg>
  </trk>
</gpx>